<?xml version="1.0" encoding="UTF-8" standalone="no" ?>
<gpx xmlns="http://www.topografix.com/GPX/1/1" xmlns:xsi="http://www.w3.org/2001/XMLSchema-instance" xsi:schemaLocation="http://www.topografix.com/GPX/1/1 http://www.topografix.com/GPX/1/1/gpx.xsd" version="1.1" creator="VisuGPX - https://www.visugpx.com">
  <metadata>
    <name>Vacances 2021</name>
  </metadata>
  <trk>
    <name><![CDATA[Journal actif: 2021-07-29 13:12]]></name>
    <trkseg>
      <trkpt lat="49.35908" lon="0.8665">
        <ele>146.26</ele>
        <time>2021-07-29T15:12:53Z</time>
      </trkpt>
      <trkpt lat="49.35908" lon="0.8665">
        <ele>146.26</ele>
        <time>2021-07-29T15:13:32Z</time>
      </trkpt>
      <trkpt lat="49.35908" lon="0.8665">
        <ele>146.74</ele>
        <time>2021-07-29T15:14:09Z</time>
      </trkpt>
      <trkpt lat="49.35908" lon="0.8665">
        <ele>146.26</ele>
        <time>2021-07-29T15:14:32Z</time>
      </trkpt>
      <trkpt lat="49.35909" lon="0.86636">
        <ele>146.74</ele>
        <time>2021-07-29T15:14:40Z</time>
      </trkpt>
      <trkpt lat="49.35914" lon="0.86528">
        <ele>142.89</ele>
        <time>2021-07-29T15:14:49Z</time>
      </trkpt>
      <trkpt lat="49.35925" lon="0.86302">
        <ele>140.97</ele>
        <time>2021-07-29T15:15:01Z</time>
      </trkpt>
      <trkpt lat="49.35944" lon="0.85899">
        <ele>140.01</ele>
        <time>2021-07-29T15:15:18Z</time>
      </trkpt>
      <trkpt lat="49.35968" lon="0.85559">
        <ele>134.72</ele>
        <time>2021-07-29T15:15:33Z</time>
      </trkpt>
      <trkpt lat="49.35994" lon="0.85207">
        <ele>131.84</ele>
        <time>2021-07-29T15:15:49Z</time>
      </trkpt>
      <trkpt lat="49.35996" lon="0.85088">
        <ele>130.4</ele>
        <time>2021-07-29T15:15:57Z</time>
      </trkpt>
      <trkpt lat="49.35977" lon="0.84926">
        <ele>132.8</ele>
        <time>2021-07-29T15:16:09Z</time>
      </trkpt>
      <trkpt lat="49.3596" lon="0.84799">
        <ele>130.4</ele>
        <time>2021-07-29T15:16:17Z</time>
      </trkpt>
      <trkpt lat="49.3593" lon="0.84563">
        <ele>130.88</ele>
        <time>2021-07-29T15:16:30Z</time>
      </trkpt>
      <trkpt lat="49.35879" lon="0.84163">
        <ele>134.24</ele>
        <time>2021-07-29T15:16:49Z</time>
      </trkpt>
      <trkpt lat="49.35848" lon="0.83884">
        <ele>131.36</ele>
        <time>2021-07-29T15:17:01Z</time>
      </trkpt>
      <trkpt lat="49.35835" lon="0.83553">
        <ele>127.99</ele>
        <time>2021-07-29T15:17:14Z</time>
      </trkpt>
      <trkpt lat="49.35808" lon="0.83333">
        <ele>125.59</ele>
        <time>2021-07-29T15:17:24Z</time>
      </trkpt>
      <trkpt lat="49.35746" lon="0.8305">
        <ele>122.22</ele>
        <time>2021-07-29T15:17:36Z</time>
      </trkpt>
      <trkpt lat="49.35743" lon="0.83008">
        <ele>122.71</ele>
        <time>2021-07-29T15:17:39Z</time>
      </trkpt>
      <trkpt lat="49.35743" lon="0.82997">
        <ele>122.22</ele>
        <time>2021-07-29T15:17:40Z</time>
      </trkpt>
      <trkpt lat="49.35743" lon="0.82987">
        <ele>122.22</ele>
        <time>2021-07-29T15:17:41Z</time>
      </trkpt>
      <trkpt lat="49.35744" lon="0.82979">
        <ele>121.74</ele>
        <time>2021-07-29T15:17:42Z</time>
      </trkpt>
      <trkpt lat="49.35746" lon="0.8297">
        <ele>122.22</ele>
        <time>2021-07-29T15:17:43Z</time>
      </trkpt>
      <trkpt lat="49.35747" lon="0.82964">
        <ele>122.22</ele>
        <time>2021-07-29T15:17:44Z</time>
      </trkpt>
      <trkpt lat="49.35754" lon="0.82956">
        <ele>122.22</ele>
        <time>2021-07-29T15:17:45Z</time>
      </trkpt>
      <trkpt lat="49.3576" lon="0.8295">
        <ele>122.22</ele>
        <time>2021-07-29T15:17:46Z</time>
      </trkpt>
      <trkpt lat="49.35765" lon="0.82944">
        <ele>121.74</ele>
        <time>2021-07-29T15:17:47Z</time>
      </trkpt>
      <trkpt lat="49.35771" lon="0.82938">
        <ele>121.74</ele>
        <time>2021-07-29T15:17:48Z</time>
      </trkpt>
      <trkpt lat="49.35776" lon="0.82932">
        <ele>121.74</ele>
        <time>2021-07-29T15:17:49Z</time>
      </trkpt>
      <trkpt lat="49.3582" lon="0.82896">
        <ele>122.22</ele>
        <time>2021-07-29T15:17:57Z</time>
      </trkpt>
      <trkpt lat="49.35869" lon="0.82859">
        <ele>125.11</ele>
        <time>2021-07-29T15:18:06Z</time>
      </trkpt>
      <trkpt lat="49.3595" lon="0.82764">
        <ele>127.51</ele>
        <time>2021-07-29T15:18:15Z</time>
      </trkpt>
      <trkpt lat="49.36065" lon="0.8256">
        <ele>129.43</ele>
        <time>2021-07-29T15:18:27Z</time>
      </trkpt>
      <trkpt lat="49.36134" lon="0.82472">
        <ele>129.92</ele>
        <time>2021-07-29T15:18:34Z</time>
      </trkpt>
      <trkpt lat="49.36149" lon="0.82465">
        <ele>131.84</ele>
        <time>2021-07-29T15:18:40Z</time>
      </trkpt>
      <trkpt lat="49.36152" lon="0.82466">
        <ele>131.84</ele>
        <time>2021-07-29T15:18:41Z</time>
      </trkpt>
      <trkpt lat="49.36157" lon="0.82468">
        <ele>131.84</ele>
        <time>2021-07-29T15:18:42Z</time>
      </trkpt>
      <trkpt lat="49.36164" lon="0.82468">
        <ele>131.84</ele>
        <time>2021-07-29T15:18:43Z</time>
      </trkpt>
      <trkpt lat="49.3617" lon="0.82467">
        <ele>131.84</ele>
        <time>2021-07-29T15:18:44Z</time>
      </trkpt>
      <trkpt lat="49.36177" lon="0.82464">
        <ele>131.84</ele>
        <time>2021-07-29T15:18:45Z</time>
      </trkpt>
      <trkpt lat="49.36183" lon="0.82458">
        <ele>131.84</ele>
        <time>2021-07-29T15:18:46Z</time>
      </trkpt>
      <trkpt lat="49.36187" lon="0.82449">
        <ele>132.32</ele>
        <time>2021-07-29T15:18:47Z</time>
      </trkpt>
      <trkpt lat="49.36189" lon="0.82438">
        <ele>132.32</ele>
        <time>2021-07-29T15:18:48Z</time>
      </trkpt>
      <trkpt lat="49.36191" lon="0.82427">
        <ele>132.32</ele>
        <time>2021-07-29T15:18:49Z</time>
      </trkpt>
      <trkpt lat="49.3619" lon="0.82417">
        <ele>132.32</ele>
        <time>2021-07-29T15:18:50Z</time>
      </trkpt>
      <trkpt lat="49.36186" lon="0.82406">
        <ele>131.84</ele>
        <time>2021-07-29T15:18:51Z</time>
      </trkpt>
      <trkpt lat="49.36185" lon="0.82381">
        <ele>131.36</ele>
        <time>2021-07-29T15:18:52Z</time>
      </trkpt>
      <trkpt lat="49.36185" lon="0.82381">
        <ele>130.88</ele>
        <time>2021-07-29T15:18:53Z</time>
      </trkpt>
      <trkpt lat="49.36187" lon="0.82368">
        <ele>130.88</ele>
        <time>2021-07-29T15:18:54Z</time>
      </trkpt>
      <trkpt lat="49.3622" lon="0.82228">
        <ele>129.92</ele>
        <time>2021-07-29T15:19:02Z</time>
      </trkpt>
      <trkpt lat="49.36287" lon="0.81994">
        <ele>131.84</ele>
        <time>2021-07-29T15:19:12Z</time>
      </trkpt>
      <trkpt lat="49.36344" lon="0.81772">
        <ele>136.64</ele>
        <time>2021-07-29T15:19:22Z</time>
      </trkpt>
      <trkpt lat="49.36372" lon="0.81609">
        <ele>139.05</ele>
        <time>2021-07-29T15:19:31Z</time>
      </trkpt>
      <trkpt lat="49.36386" lon="0.8158">
        <ele>142.41</ele>
        <time>2021-07-29T15:19:39Z</time>
      </trkpt>
      <trkpt lat="49.36388" lon="0.81573">
        <ele>142.41</ele>
        <time>2021-07-29T15:19:40Z</time>
      </trkpt>
      <trkpt lat="49.36394" lon="0.81567">
        <ele>141.93</ele>
        <time>2021-07-29T15:19:41Z</time>
      </trkpt>
      <trkpt lat="49.36402" lon="0.81563">
        <ele>141.93</ele>
        <time>2021-07-29T15:19:42Z</time>
      </trkpt>
      <trkpt lat="49.36542" lon="0.81504">
        <ele>138.57</ele>
        <time>2021-07-29T15:19:54Z</time>
      </trkpt>
      <trkpt lat="49.36668" lon="0.81467">
        <ele>132.32</ele>
        <time>2021-07-29T15:20:05Z</time>
      </trkpt>
      <trkpt lat="49.36674" lon="0.81468">
        <ele>132.8</ele>
        <time>2021-07-29T15:20:06Z</time>
      </trkpt>
      <trkpt lat="49.36679" lon="0.81468">
        <ele>132.32</ele>
        <time>2021-07-29T15:20:07Z</time>
      </trkpt>
      <trkpt lat="49.36683" lon="0.81471">
        <ele>132.32</ele>
        <time>2021-07-29T15:20:08Z</time>
      </trkpt>
      <trkpt lat="49.36683" lon="0.81471">
        <ele>132.8</ele>
        <time>2021-07-29T15:20:09Z</time>
      </trkpt>
      <trkpt lat="49.36688" lon="0.81476">
        <ele>132.32</ele>
        <time>2021-07-29T15:20:10Z</time>
      </trkpt>
      <trkpt lat="49.36698" lon="0.81486">
        <ele>132.32</ele>
        <time>2021-07-29T15:20:11Z</time>
      </trkpt>
      <trkpt lat="49.36698" lon="0.81486">
        <ele>131.84</ele>
        <time>2021-07-29T15:20:12Z</time>
      </trkpt>
      <trkpt lat="49.36708" lon="0.81508">
        <ele>131.84</ele>
        <time>2021-07-29T15:20:13Z</time>
      </trkpt>
      <trkpt lat="49.36708" lon="0.81508">
        <ele>131.84</ele>
        <time>2021-07-29T15:20:14Z</time>
      </trkpt>
      <trkpt lat="49.3671" lon="0.81521">
        <ele>132.32</ele>
        <time>2021-07-29T15:20:15Z</time>
      </trkpt>
      <trkpt lat="49.36711" lon="0.81535">
        <ele>132.32</ele>
        <time>2021-07-29T15:20:16Z</time>
      </trkpt>
      <trkpt lat="49.36713" lon="0.8155">
        <ele>132.8</ele>
        <time>2021-07-29T15:20:17Z</time>
      </trkpt>
      <trkpt lat="49.3671" lon="0.81562">
        <ele>132.8</ele>
        <time>2021-07-29T15:20:18Z</time>
      </trkpt>
      <trkpt lat="49.36708" lon="0.81575">
        <ele>133.28</ele>
        <time>2021-07-29T15:20:19Z</time>
      </trkpt>
      <trkpt lat="49.36705" lon="0.81588">
        <ele>133.28</ele>
        <time>2021-07-29T15:20:20Z</time>
      </trkpt>
      <trkpt lat="49.3665" lon="0.8174">
        <ele>136.64</ele>
        <time>2021-07-29T15:20:30Z</time>
      </trkpt>
      <trkpt lat="49.36616" lon="0.81839">
        <ele>137.13</ele>
        <time>2021-07-29T15:20:36Z</time>
      </trkpt>
      <trkpt lat="49.36608" lon="0.81849">
        <ele>136.64</ele>
        <time>2021-07-29T15:20:37Z</time>
      </trkpt>
      <trkpt lat="49.36592" lon="0.81868">
        <ele>135.2</ele>
        <time>2021-07-29T15:20:38Z</time>
      </trkpt>
      <trkpt lat="49.36592" lon="0.81868">
        <ele>133.28</ele>
        <time>2021-07-29T15:20:39Z</time>
      </trkpt>
      <trkpt lat="49.36583" lon="0.81876">
        <ele>132.8</ele>
        <time>2021-07-29T15:20:40Z</time>
      </trkpt>
      <trkpt lat="49.36573" lon="0.81877">
        <ele>131.84</ele>
        <time>2021-07-29T15:20:41Z</time>
      </trkpt>
      <trkpt lat="49.36562" lon="0.81878">
        <ele>130.88</ele>
        <time>2021-07-29T15:20:42Z</time>
      </trkpt>
      <trkpt lat="49.36549" lon="0.81875">
        <ele>130.4</ele>
        <time>2021-07-29T15:20:43Z</time>
      </trkpt>
      <trkpt lat="49.36538" lon="0.81872">
        <ele>129.92</ele>
        <time>2021-07-29T15:20:44Z</time>
      </trkpt>
      <trkpt lat="49.36527" lon="0.81862">
        <ele>129.92</ele>
        <time>2021-07-29T15:20:45Z</time>
      </trkpt>
      <trkpt lat="49.36515" lon="0.8185">
        <ele>129.43</ele>
        <time>2021-07-29T15:20:46Z</time>
      </trkpt>
      <trkpt lat="49.36508" lon="0.81835">
        <ele>129.43</ele>
        <time>2021-07-29T15:20:47Z</time>
      </trkpt>
      <trkpt lat="49.36503" lon="0.81817">
        <ele>129.92</ele>
        <time>2021-07-29T15:20:48Z</time>
      </trkpt>
      <trkpt lat="49.36502" lon="0.81798">
        <ele>131.84</ele>
        <time>2021-07-29T15:20:49Z</time>
      </trkpt>
      <trkpt lat="49.36501" lon="0.81778">
        <ele>131.84</ele>
        <time>2021-07-29T15:20:50Z</time>
      </trkpt>
      <trkpt lat="49.365" lon="0.81756">
        <ele>132.32</ele>
        <time>2021-07-29T15:20:51Z</time>
      </trkpt>
      <trkpt lat="49.36509" lon="0.81473">
        <ele>132.8</ele>
        <time>2021-07-29T15:21:02Z</time>
      </trkpt>
      <trkpt lat="49.36535" lon="0.81038">
        <ele>133.28</ele>
        <time>2021-07-29T15:21:16Z</time>
      </trkpt>
      <trkpt lat="49.36575" lon="0.80419">
        <ele>136.16</ele>
        <time>2021-07-29T15:21:34Z</time>
      </trkpt>
      <trkpt lat="49.3664" lon="0.79663">
        <ele>142.89</ele>
        <time>2021-07-29T15:21:54Z</time>
      </trkpt>
      <trkpt lat="49.36743" lon="0.78861">
        <ele>142.89</ele>
        <time>2021-07-29T15:22:17Z</time>
      </trkpt>
      <trkpt lat="49.36853" lon="0.78039">
        <ele>139.05</ele>
        <time>2021-07-29T15:22:39Z</time>
      </trkpt>
      <trkpt lat="49.36951" lon="0.77154">
        <ele>140.01</ele>
        <time>2021-07-29T15:23:03Z</time>
      </trkpt>
      <trkpt lat="49.36996" lon="0.76399">
        <ele>141.45</ele>
        <time>2021-07-29T15:23:24Z</time>
      </trkpt>
      <trkpt lat="49.36995" lon="0.75636">
        <ele>142.41</ele>
        <time>2021-07-29T15:23:45Z</time>
      </trkpt>
      <trkpt lat="49.36979" lon="0.74842">
        <ele>142.89</ele>
        <time>2021-07-29T15:24:06Z</time>
      </trkpt>
      <trkpt lat="49.36989" lon="0.74308">
        <ele>140.49</ele>
        <time>2021-07-29T15:24:21Z</time>
      </trkpt>
      <trkpt lat="49.37032" lon="0.73517">
        <ele>136.64</ele>
        <time>2021-07-29T15:24:41Z</time>
      </trkpt>
      <trkpt lat="49.37061" lon="0.72789">
        <ele>138.09</ele>
        <time>2021-07-29T15:24:59Z</time>
      </trkpt>
      <trkpt lat="49.37057" lon="0.72296">
        <ele>139.05</ele>
        <time>2021-07-29T15:25:12Z</time>
      </trkpt>
      <trkpt lat="49.37043" lon="0.71699">
        <ele>138.57</ele>
        <time>2021-07-29T15:25:30Z</time>
      </trkpt>
      <trkpt lat="49.3704" lon="0.71189">
        <ele>137.13</ele>
        <time>2021-07-29T15:25:45Z</time>
      </trkpt>
      <trkpt lat="49.37046" lon="0.71007">
        <ele>137.13</ele>
        <time>2021-07-29T15:25:53Z</time>
      </trkpt>
      <trkpt lat="49.37068" lon="0.70941">
        <ele>138.09</ele>
        <time>2021-07-29T15:25:59Z</time>
      </trkpt>
      <trkpt lat="49.37072" lon="0.7088">
        <ele>138.57</ele>
        <time>2021-07-29T15:26:10Z</time>
      </trkpt>
      <trkpt lat="49.37073" lon="0.70843">
        <ele>138.09</ele>
        <time>2021-07-29T15:26:18Z</time>
      </trkpt>
      <trkpt lat="49.37074" lon="0.70804">
        <ele>136.64</ele>
        <time>2021-07-29T15:26:24Z</time>
      </trkpt>
      <trkpt lat="49.37074" lon="0.70804">
        <ele>136.64</ele>
        <time>2021-07-29T15:26:25Z</time>
      </trkpt>
      <trkpt lat="49.3709" lon="0.70808">
        <ele>136.16</ele>
        <time>2021-07-29T15:26:26Z</time>
      </trkpt>
      <trkpt lat="49.3709" lon="0.70808">
        <ele>135.68</ele>
        <time>2021-07-29T15:26:27Z</time>
      </trkpt>
      <trkpt lat="49.37093" lon="0.70804">
        <ele>135.2</ele>
        <time>2021-07-29T15:26:28Z</time>
      </trkpt>
      <trkpt lat="49.37103" lon="0.70794">
        <ele>132.8</ele>
        <time>2021-07-29T15:26:38Z</time>
      </trkpt>
      <trkpt lat="49.37103" lon="0.70794">
        <ele>133.28</ele>
        <time>2021-07-29T15:32:50Z</time>
      </trkpt>
      <trkpt lat="49.37103" lon="0.70794">
        <ele>133.28</ele>
        <time>2021-07-29T15:34:31Z</time>
      </trkpt>
      <trkpt lat="49.37103" lon="0.70794">
        <ele>133.28</ele>
        <time>2021-07-29T15:36:38Z</time>
      </trkpt>
      <trkpt lat="49.37103" lon="0.70794">
        <ele>133.28</ele>
        <time>2021-07-29T15:39:04Z</time>
      </trkpt>
      <trkpt lat="49.37103" lon="0.70794">
        <ele>133.28</ele>
        <time>2021-07-29T15:44:36Z</time>
      </trkpt>
      <trkpt lat="49.37103" lon="0.70794">
        <ele>131.84</ele>
        <time>2021-07-29T15:51:35Z</time>
      </trkpt>
      <trkpt lat="49.37103" lon="0.70794">
        <ele>131.36</ele>
        <time>2021-07-29T15:57:35Z</time>
      </trkpt>
      <trkpt lat="49.37103" lon="0.70794">
        <ele>131.36</ele>
        <time>2021-07-29T16:00:27Z</time>
      </trkpt>
      <trkpt lat="49.37103" lon="0.70794">
        <ele>131.84</ele>
        <time>2021-07-29T16:02:01Z</time>
      </trkpt>
      <trkpt lat="49.37103" lon="0.70794">
        <ele>131.84</ele>
        <time>2021-07-29T16:03:21Z</time>
      </trkpt>
      <trkpt lat="49.37103" lon="0.70794">
        <ele>130.88</ele>
        <time>2021-07-29T16:09:23Z</time>
      </trkpt>
      <trkpt lat="49.37103" lon="0.70794">
        <ele>130.88</ele>
        <time>2021-07-29T16:11:28Z</time>
      </trkpt>
      <trkpt lat="49.37103" lon="0.70794">
        <ele>130.4</ele>
        <time>2021-07-29T16:12:34Z</time>
      </trkpt>
      <trkpt lat="49.37103" lon="0.70794">
        <ele>130.4</ele>
        <time>2021-07-29T16:15:51Z</time>
      </trkpt>
      <trkpt lat="49.37103" lon="0.70794">
        <ele>129.92</ele>
        <time>2021-07-29T16:18:50Z</time>
      </trkpt>
      <trkpt lat="49.37103" lon="0.70794">
        <ele>129.92</ele>
        <time>2021-07-29T16:21:22Z</time>
      </trkpt>
      <trkpt lat="49.37103" lon="0.70794">
        <ele>129.92</ele>
        <time>2021-07-29T16:24:01Z</time>
      </trkpt>
      <trkpt lat="49.37103" lon="0.70794">
        <ele>129.92</ele>
        <time>2021-07-29T16:26:12Z</time>
      </trkpt>
      <trkpt lat="49.37103" lon="0.70794">
        <ele>129.92</ele>
        <time>2021-07-29T16:27:22Z</time>
      </trkpt>
      <trkpt lat="49.37103" lon="0.70794">
        <ele>129.92</ele>
        <time>2021-07-29T16:29:33Z</time>
      </trkpt>
      <trkpt lat="49.37103" lon="0.70794">
        <ele>129.43</ele>
        <time>2021-07-29T16:32:58Z</time>
      </trkpt>
      <trkpt lat="49.37103" lon="0.70794">
        <ele>129.43</ele>
        <time>2021-07-29T16:35:52Z</time>
      </trkpt>
      <trkpt lat="49.37103" lon="0.70794">
        <ele>129.92</ele>
        <time>2021-07-29T16:36:46Z</time>
      </trkpt>
      <trkpt lat="49.37103" lon="0.70794">
        <ele>129.92</ele>
        <time>2021-07-29T16:38:23Z</time>
      </trkpt>
      <trkpt lat="49.37103" lon="0.70794">
        <ele>129.92</ele>
        <time>2021-07-29T16:40:13Z</time>
      </trkpt>
      <trkpt lat="49.37103" lon="0.70794">
        <ele>129.92</ele>
        <time>2021-07-29T16:42:31Z</time>
      </trkpt>
      <trkpt lat="49.37103" lon="0.70794">
        <ele>130.4</ele>
        <time>2021-07-29T16:43:54Z</time>
      </trkpt>
      <trkpt lat="49.37108" lon="0.70789">
        <ele>129.92</ele>
        <time>2021-07-29T16:44:15Z</time>
      </trkpt>
      <trkpt lat="49.37108" lon="0.70789">
        <ele>129.92</ele>
        <time>2021-07-29T16:44:17Z</time>
      </trkpt>
      <trkpt lat="49.37106" lon="0.7077">
        <ele>129.92</ele>
        <time>2021-07-29T16:44:18Z</time>
      </trkpt>
      <trkpt lat="49.37106" lon="0.70767">
        <ele>129.92</ele>
        <time>2021-07-29T16:44:19Z</time>
      </trkpt>
      <trkpt lat="49.37106" lon="0.70716">
        <ele>129.92</ele>
        <time>2021-07-29T16:44:31Z</time>
      </trkpt>
      <trkpt lat="49.37104" lon="0.70711">
        <ele>129.92</ele>
        <time>2021-07-29T16:44:32Z</time>
      </trkpt>
      <trkpt lat="49.37097" lon="0.70691">
        <ele>128.47</ele>
        <time>2021-07-29T16:44:35Z</time>
      </trkpt>
      <trkpt lat="49.37082" lon="0.70651">
        <ele>129.43</ele>
        <time>2021-07-29T16:44:40Z</time>
      </trkpt>
      <trkpt lat="49.37081" lon="0.70633">
        <ele>128.95</ele>
        <time>2021-07-29T16:44:41Z</time>
      </trkpt>
      <trkpt lat="49.37081" lon="0.70633">
        <ele>128.95</ele>
        <time>2021-07-29T16:44:42Z</time>
      </trkpt>
      <trkpt lat="49.37088" lon="0.70514">
        <ele>126.07</ele>
        <time>2021-07-29T16:44:50Z</time>
      </trkpt>
      <trkpt lat="49.37101" lon="0.7027">
        <ele>124.63</ele>
        <time>2021-07-29T16:45:01Z</time>
      </trkpt>
      <trkpt lat="49.37117" lon="0.69992">
        <ele>124.15</ele>
        <time>2021-07-29T16:45:11Z</time>
      </trkpt>
      <trkpt lat="49.37157" lon="0.6948">
        <ele>125.59</ele>
        <time>2021-07-29T16:45:26Z</time>
      </trkpt>
      <trkpt lat="49.37198" lon="0.68851">
        <ele>126.55</ele>
        <time>2021-07-29T16:45:43Z</time>
      </trkpt>
      <trkpt lat="49.37209" lon="0.68176">
        <ele>124.63</ele>
        <time>2021-07-29T16:46:00Z</time>
      </trkpt>
      <trkpt lat="49.37198" lon="0.67171">
        <ele>122.22</ele>
        <time>2021-07-29T16:46:25Z</time>
      </trkpt>
      <trkpt lat="49.37222" lon="0.66539">
        <ele>122.71</ele>
        <time>2021-07-29T16:46:41Z</time>
      </trkpt>
      <trkpt lat="49.3729" lon="0.65913">
        <ele>125.59</ele>
        <time>2021-07-29T16:46:58Z</time>
      </trkpt>
      <trkpt lat="49.37407" lon="0.65224">
        <ele>126.55</ele>
        <time>2021-07-29T16:47:17Z</time>
      </trkpt>
      <trkpt lat="49.37505" lon="0.64604">
        <ele>121.74</ele>
        <time>2021-07-29T16:47:33Z</time>
      </trkpt>
      <trkpt lat="49.37611" lon="0.63758">
        <ele>121.26</ele>
        <time>2021-07-29T16:47:54Z</time>
      </trkpt>
      <trkpt lat="49.37653" lon="0.63405">
        <ele>122.71</ele>
        <time>2021-07-29T16:48:04Z</time>
      </trkpt>
      <trkpt lat="49.37673" lon="0.63247">
        <ele>124.15</ele>
        <time>2021-07-29T16:48:11Z</time>
      </trkpt>
      <trkpt lat="49.37692" lon="0.63238">
        <ele>125.11</ele>
        <time>2021-07-29T16:48:12Z</time>
      </trkpt>
      <trkpt lat="49.37698" lon="0.6322">
        <ele>125.59</ele>
        <time>2021-07-29T16:48:13Z</time>
      </trkpt>
      <trkpt lat="49.37705" lon="0.6321">
        <ele>125.11</ele>
        <time>2021-07-29T16:48:14Z</time>
      </trkpt>
      <trkpt lat="49.37714" lon="0.632">
        <ele>124.15</ele>
        <time>2021-07-29T16:48:15Z</time>
      </trkpt>
      <trkpt lat="49.37723" lon="0.6319">
        <ele>124.63</ele>
        <time>2021-07-29T16:48:16Z</time>
      </trkpt>
      <trkpt lat="49.37733" lon="0.6318">
        <ele>125.11</ele>
        <time>2021-07-29T16:48:17Z</time>
      </trkpt>
      <trkpt lat="49.37743" lon="0.63172">
        <ele>125.11</ele>
        <time>2021-07-29T16:48:18Z</time>
      </trkpt>
      <trkpt lat="49.37774" lon="0.6315">
        <ele>125.59</ele>
        <time>2021-07-29T16:48:21Z</time>
      </trkpt>
      <trkpt lat="49.37786" lon="0.63142">
        <ele>126.07</ele>
        <time>2021-07-29T16:48:22Z</time>
      </trkpt>
      <trkpt lat="49.37796" lon="0.63135">
        <ele>126.55</ele>
        <time>2021-07-29T16:48:23Z</time>
      </trkpt>
      <trkpt lat="49.37804" lon="0.63123">
        <ele>127.03</ele>
        <time>2021-07-29T16:48:24Z</time>
      </trkpt>
      <trkpt lat="49.37811" lon="0.63111">
        <ele>127.51</ele>
        <time>2021-07-29T16:48:25Z</time>
      </trkpt>
      <trkpt lat="49.37816" lon="0.63096">
        <ele>127.51</ele>
        <time>2021-07-29T16:48:26Z</time>
      </trkpt>
      <trkpt lat="49.37818" lon="0.63079">
        <ele>125.59</ele>
        <time>2021-07-29T16:48:27Z</time>
      </trkpt>
      <trkpt lat="49.37817" lon="0.63063">
        <ele>125.59</ele>
        <time>2021-07-29T16:48:28Z</time>
      </trkpt>
      <trkpt lat="49.37816" lon="0.63046">
        <ele>125.59</ele>
        <time>2021-07-29T16:48:29Z</time>
      </trkpt>
      <trkpt lat="49.37813" lon="0.6303">
        <ele>126.55</ele>
        <time>2021-07-29T16:48:30Z</time>
      </trkpt>
      <trkpt lat="49.37807" lon="0.63015">
        <ele>127.03</ele>
        <time>2021-07-29T16:48:31Z</time>
      </trkpt>
      <trkpt lat="49.37801" lon="0.62999">
        <ele>127.03</ele>
        <time>2021-07-29T16:48:32Z</time>
      </trkpt>
      <trkpt lat="49.37751" lon="0.62867">
        <ele>127.03</ele>
        <time>2021-07-29T16:48:39Z</time>
      </trkpt>
      <trkpt lat="49.37751" lon="0.62867">
        <ele>126.07</ele>
        <time>2021-07-29T16:48:40Z</time>
      </trkpt>
      <trkpt lat="49.37746" lon="0.62827">
        <ele>125.59</ele>
        <time>2021-07-29T16:48:41Z</time>
      </trkpt>
      <trkpt lat="49.37745" lon="0.62806">
        <ele>125.11</ele>
        <time>2021-07-29T16:48:42Z</time>
      </trkpt>
      <trkpt lat="49.37745" lon="0.62806">
        <ele>124.15</ele>
        <time>2021-07-29T16:48:43Z</time>
      </trkpt>
      <trkpt lat="49.37745" lon="0.62763">
        <ele>123.67</ele>
        <time>2021-07-29T16:48:44Z</time>
      </trkpt>
      <trkpt lat="49.37748" lon="0.6274">
        <ele>123.19</ele>
        <time>2021-07-29T16:48:45Z</time>
      </trkpt>
      <trkpt lat="49.37748" lon="0.6274">
        <ele>123.19</ele>
        <time>2021-07-29T16:48:46Z</time>
      </trkpt>
      <trkpt lat="49.37773" lon="0.62607">
        <ele>124.15</ele>
        <time>2021-07-29T16:48:54Z</time>
      </trkpt>
      <trkpt lat="49.37786" lon="0.62555">
        <ele>124.15</ele>
        <time>2021-07-29T16:49:01Z</time>
      </trkpt>
      <trkpt lat="49.37798" lon="0.62515">
        <ele>123.67</ele>
        <time>2021-07-29T16:49:09Z</time>
      </trkpt>
      <trkpt lat="49.37829" lon="0.62429">
        <ele>124.15</ele>
        <time>2021-07-29T16:49:17Z</time>
      </trkpt>
      <trkpt lat="49.37888" lon="0.6226">
        <ele>127.03</ele>
        <time>2021-07-29T16:49:29Z</time>
      </trkpt>
      <trkpt lat="49.37889" lon="0.62226">
        <ele>127.99</ele>
        <time>2021-07-29T16:49:38Z</time>
      </trkpt>
      <trkpt lat="49.37899" lon="0.62212">
        <ele>128.95</ele>
        <time>2021-07-29T16:49:41Z</time>
      </trkpt>
      <trkpt lat="49.37902" lon="0.62208">
        <ele>128.95</ele>
        <time>2021-07-29T16:49:42Z</time>
      </trkpt>
      <trkpt lat="49.37903" lon="0.62196">
        <ele>128.95</ele>
        <time>2021-07-29T16:49:43Z</time>
      </trkpt>
      <trkpt lat="49.37903" lon="0.62188">
        <ele>128.95</ele>
        <time>2021-07-29T16:49:44Z</time>
      </trkpt>
      <trkpt lat="49.37902" lon="0.6218">
        <ele>128.95</ele>
        <time>2021-07-29T16:49:45Z</time>
      </trkpt>
      <trkpt lat="49.37897" lon="0.62172">
        <ele>128.95</ele>
        <time>2021-07-29T16:49:46Z</time>
      </trkpt>
      <trkpt lat="49.37891" lon="0.62168">
        <ele>128.47</ele>
        <time>2021-07-29T16:49:47Z</time>
      </trkpt>
      <trkpt lat="49.37886" lon="0.62166">
        <ele>128.47</ele>
        <time>2021-07-29T16:49:48Z</time>
      </trkpt>
      <trkpt lat="49.3788" lon="0.6217">
        <ele>128.47</ele>
        <time>2021-07-29T16:49:49Z</time>
      </trkpt>
      <trkpt lat="49.37875" lon="0.62174">
        <ele>128.95</ele>
        <time>2021-07-29T16:49:50Z</time>
      </trkpt>
      <trkpt lat="49.37871" lon="0.62184">
        <ele>128.95</ele>
        <time>2021-07-29T16:49:51Z</time>
      </trkpt>
      <trkpt lat="49.37871" lon="0.62194">
        <ele>129.43</ele>
        <time>2021-07-29T16:49:52Z</time>
      </trkpt>
      <trkpt lat="49.37856" lon="0.62216">
        <ele>129.43</ele>
        <time>2021-07-29T16:49:53Z</time>
      </trkpt>
      <trkpt lat="49.37847" lon="0.62222">
        <ele>129.43</ele>
        <time>2021-07-29T16:49:54Z</time>
      </trkpt>
      <trkpt lat="49.37739" lon="0.62308">
        <ele>128.47</ele>
        <time>2021-07-29T16:50:06Z</time>
      </trkpt>
      <trkpt lat="49.37721" lon="0.62322">
        <ele>129.43</ele>
        <time>2021-07-29T16:50:08Z</time>
      </trkpt>
      <trkpt lat="49.37713" lon="0.62328">
        <ele>129.43</ele>
        <time>2021-07-29T16:50:09Z</time>
      </trkpt>
      <trkpt lat="49.37701" lon="0.62338">
        <ele>129.43</ele>
        <time>2021-07-29T16:50:10Z</time>
      </trkpt>
      <trkpt lat="49.3769" lon="0.62328">
        <ele>128.95</ele>
        <time>2021-07-29T16:50:12Z</time>
      </trkpt>
      <trkpt lat="49.37684" lon="0.62328">
        <ele>128.95</ele>
        <time>2021-07-29T16:50:13Z</time>
      </trkpt>
      <trkpt lat="49.37679" lon="0.62331">
        <ele>128.47</ele>
        <time>2021-07-29T16:50:14Z</time>
      </trkpt>
      <trkpt lat="49.37676" lon="0.62337">
        <ele>128.95</ele>
        <time>2021-07-29T16:50:15Z</time>
      </trkpt>
      <trkpt lat="49.37673" lon="0.62344">
        <ele>128.95</ele>
        <time>2021-07-29T16:50:16Z</time>
      </trkpt>
      <trkpt lat="49.37672" lon="0.62345">
        <ele>128.95</ele>
        <time>2021-07-29T16:50:17Z</time>
      </trkpt>
      <trkpt lat="49.37672" lon="0.62345">
        <ele>128.95</ele>
        <time>2021-07-29T16:50:18Z</time>
      </trkpt>
      <trkpt lat="49.37663" lon="0.62378">
        <ele>129.43</ele>
        <time>2021-07-29T16:50:19Z</time>
      </trkpt>
      <trkpt lat="49.37656" lon="0.62384">
        <ele>128.95</ele>
        <time>2021-07-29T16:50:20Z</time>
      </trkpt>
      <trkpt lat="49.37555" lon="0.6247">
        <ele>128.47</ele>
        <time>2021-07-29T16:50:30Z</time>
      </trkpt>
      <trkpt lat="49.37368" lon="0.62642">
        <ele>131.36</ele>
        <time>2021-07-29T16:50:44Z</time>
      </trkpt>
      <trkpt lat="49.3712" lon="0.62866">
        <ele>131.36</ele>
        <time>2021-07-29T16:51:00Z</time>
      </trkpt>
      <trkpt lat="49.36911" lon="0.63029">
        <ele>131.36</ele>
        <time>2021-07-29T16:51:12Z</time>
      </trkpt>
      <trkpt lat="49.36742" lon="0.63152">
        <ele>133.76</ele>
        <time>2021-07-29T16:51:24Z</time>
      </trkpt>
      <trkpt lat="49.36501" lon="0.63327">
        <ele>132.8</ele>
        <time>2021-07-29T16:51:38Z</time>
      </trkpt>
      <trkpt lat="49.36185" lon="0.6354">
        <ele>133.76</ele>
        <time>2021-07-29T16:51:55Z</time>
      </trkpt>
      <trkpt lat="49.35852" lon="0.63697">
        <ele>131.84</ele>
        <time>2021-07-29T16:52:12Z</time>
      </trkpt>
      <trkpt lat="49.35638" lon="0.63776">
        <ele>132.32</ele>
        <time>2021-07-29T16:52:24Z</time>
      </trkpt>
      <trkpt lat="49.35565" lon="0.63789">
        <ele>131.84</ele>
        <time>2021-07-29T16:52:31Z</time>
      </trkpt>
      <trkpt lat="49.35554" lon="0.63791">
        <ele>132.32</ele>
        <time>2021-07-29T16:52:37Z</time>
      </trkpt>
      <trkpt lat="49.35551" lon="0.63791">
        <ele>132.32</ele>
        <time>2021-07-29T16:52:40Z</time>
      </trkpt>
      <trkpt lat="49.35547" lon="0.6379">
        <ele>132.8</ele>
        <time>2021-07-29T16:52:41Z</time>
      </trkpt>
      <trkpt lat="49.35543" lon="0.63785">
        <ele>132.8</ele>
        <time>2021-07-29T16:52:42Z</time>
      </trkpt>
      <trkpt lat="49.35539" lon="0.63779">
        <ele>132.8</ele>
        <time>2021-07-29T16:52:43Z</time>
      </trkpt>
      <trkpt lat="49.35535" lon="0.63773">
        <ele>132.8</ele>
        <time>2021-07-29T16:52:44Z</time>
      </trkpt>
      <trkpt lat="49.35526" lon="0.63753">
        <ele>132.8</ele>
        <time>2021-07-29T16:52:45Z</time>
      </trkpt>
      <trkpt lat="49.35526" lon="0.63753">
        <ele>132.32</ele>
        <time>2021-07-29T16:52:46Z</time>
      </trkpt>
      <trkpt lat="49.35521" lon="0.63723">
        <ele>132.8</ele>
        <time>2021-07-29T16:52:47Z</time>
      </trkpt>
      <trkpt lat="49.35496" lon="0.63579">
        <ele>133.28</ele>
        <time>2021-07-29T16:52:56Z</time>
      </trkpt>
      <trkpt lat="49.35473" lon="0.63284">
        <ele>133.28</ele>
        <time>2021-07-29T16:53:09Z</time>
      </trkpt>
      <trkpt lat="49.35442" lon="0.62878">
        <ele>129.92</ele>
        <time>2021-07-29T16:53:24Z</time>
      </trkpt>
      <trkpt lat="49.35401" lon="0.62343">
        <ele>127.99</ele>
        <time>2021-07-29T16:53:41Z</time>
      </trkpt>
      <trkpt lat="49.35353" lon="0.61693">
        <ele>120.3</ele>
        <time>2021-07-29T16:54:01Z</time>
      </trkpt>
      <trkpt lat="49.35311" lon="0.61147">
        <ele>117.42</ele>
        <time>2021-07-29T16:54:18Z</time>
      </trkpt>
      <trkpt lat="49.35272" lon="0.60611">
        <ele>113.09</ele>
        <time>2021-07-29T16:54:35Z</time>
      </trkpt>
      <trkpt lat="49.35253" lon="0.60531">
        <ele>111.17</ele>
        <time>2021-07-29T16:54:38Z</time>
      </trkpt>
      <trkpt lat="49.35243" lon="0.60503">
        <ele>110.21</ele>
        <time>2021-07-29T16:54:39Z</time>
      </trkpt>
      <trkpt lat="49.35234" lon="0.60477">
        <ele>109.25</ele>
        <time>2021-07-29T16:54:40Z</time>
      </trkpt>
      <trkpt lat="49.35137" lon="0.60286">
        <ele>103.48</ele>
        <time>2021-07-29T16:54:47Z</time>
      </trkpt>
      <trkpt lat="49.35137" lon="0.60286">
        <ele>101.56</ele>
        <time>2021-07-29T16:54:48Z</time>
      </trkpt>
      <trkpt lat="49.3512" lon="0.6027">
        <ele>101.56</ele>
        <time>2021-07-29T16:54:49Z</time>
      </trkpt>
      <trkpt lat="49.35103" lon="0.60255">
        <ele>100.11</ele>
        <time>2021-07-29T16:54:50Z</time>
      </trkpt>
      <trkpt lat="49.35086" lon="0.60241">
        <ele>98.67</ele>
        <time>2021-07-29T16:54:51Z</time>
      </trkpt>
      <trkpt lat="49.34991" lon="0.60179">
        <ele>93.87</ele>
        <time>2021-07-29T16:54:56Z</time>
      </trkpt>
      <trkpt lat="49.34974" lon="0.60162">
        <ele>92.42</ele>
        <time>2021-07-29T16:54:57Z</time>
      </trkpt>
      <trkpt lat="49.34959" lon="0.60143">
        <ele>90.5</ele>
        <time>2021-07-29T16:54:58Z</time>
      </trkpt>
      <trkpt lat="49.34944" lon="0.60123">
        <ele>88.58</ele>
        <time>2021-07-29T16:54:59Z</time>
      </trkpt>
      <trkpt lat="49.34932" lon="0.60098">
        <ele>87.62</ele>
        <time>2021-07-29T16:55:00Z</time>
      </trkpt>
      <trkpt lat="49.34912" lon="0.60044">
        <ele>86.18</ele>
        <time>2021-07-29T16:55:01Z</time>
      </trkpt>
      <trkpt lat="49.34912" lon="0.60044">
        <ele>84.73</ele>
        <time>2021-07-29T16:55:02Z</time>
      </trkpt>
      <trkpt lat="49.34907" lon="0.60016">
        <ele>83.29</ele>
        <time>2021-07-29T16:55:03Z</time>
      </trkpt>
      <trkpt lat="49.34902" lon="0.59986">
        <ele>81.37</ele>
        <time>2021-07-29T16:55:04Z</time>
      </trkpt>
      <trkpt lat="49.34898" lon="0.59957">
        <ele>80.41</ele>
        <time>2021-07-29T16:55:05Z</time>
      </trkpt>
      <trkpt lat="49.34878" lon="0.5984">
        <ele>75.6</ele>
        <time>2021-07-29T16:55:09Z</time>
      </trkpt>
      <trkpt lat="49.34871" lon="0.59812">
        <ele>74.64</ele>
        <time>2021-07-29T16:55:10Z</time>
      </trkpt>
      <trkpt lat="49.34862" lon="0.59786">
        <ele>73.2</ele>
        <time>2021-07-29T16:55:11Z</time>
      </trkpt>
      <trkpt lat="49.3485" lon="0.5976">
        <ele>72.24</ele>
        <time>2021-07-29T16:55:12Z</time>
      </trkpt>
      <trkpt lat="49.34839" lon="0.59735">
        <ele>71.27</ele>
        <time>2021-07-29T16:55:13Z</time>
      </trkpt>
      <trkpt lat="49.34825" lon="0.59719">
        <ele>70.31</ele>
        <time>2021-07-29T16:55:14Z</time>
      </trkpt>
      <trkpt lat="49.34809" lon="0.59702">
        <ele>68.87</ele>
        <time>2021-07-29T16:55:15Z</time>
      </trkpt>
      <trkpt lat="49.34777" lon="0.5967">
        <ele>67.91</ele>
        <time>2021-07-29T16:55:16Z</time>
      </trkpt>
      <trkpt lat="49.34777" lon="0.5967">
        <ele>66.95</ele>
        <time>2021-07-29T16:55:17Z</time>
      </trkpt>
      <trkpt lat="49.3469" lon="0.59602">
        <ele>61.66</ele>
        <time>2021-07-29T16:55:22Z</time>
      </trkpt>
      <trkpt lat="49.34674" lon="0.59583">
        <ele>60.22</ele>
        <time>2021-07-29T16:55:23Z</time>
      </trkpt>
      <trkpt lat="49.34661" lon="0.59561">
        <ele>59.26</ele>
        <time>2021-07-29T16:55:24Z</time>
      </trkpt>
      <trkpt lat="49.34649" lon="0.59537">
        <ele>58.3</ele>
        <time>2021-07-29T16:55:25Z</time>
      </trkpt>
      <trkpt lat="49.34638" lon="0.59511">
        <ele>57.34</ele>
        <time>2021-07-29T16:55:26Z</time>
      </trkpt>
      <trkpt lat="49.34464" lon="0.59125">
        <ele>40.03</ele>
        <time>2021-07-29T16:55:41Z</time>
      </trkpt>
      <trkpt lat="49.34349" lon="0.58918">
        <ele>29.46</ele>
        <time>2021-07-29T16:55:51Z</time>
      </trkpt>
      <trkpt lat="49.34316" lon="0.58863">
        <ele>28.98</ele>
        <time>2021-07-29T16:55:56Z</time>
      </trkpt>
      <trkpt lat="49.34311" lon="0.58856">
        <ele>28.5</ele>
        <time>2021-07-29T16:55:57Z</time>
      </trkpt>
      <trkpt lat="49.34311" lon="0.58816">
        <ele>28.98</ele>
        <time>2021-07-29T16:56:00Z</time>
      </trkpt>
      <trkpt lat="49.34306" lon="0.5881">
        <ele>28.98</ele>
        <time>2021-07-29T16:56:01Z</time>
      </trkpt>
      <trkpt lat="49.3429" lon="0.58804">
        <ele>28.98</ele>
        <time>2021-07-29T16:56:03Z</time>
      </trkpt>
      <trkpt lat="49.3429" lon="0.58796">
        <ele>28.98</ele>
        <time>2021-07-29T16:56:04Z</time>
      </trkpt>
      <trkpt lat="49.34289" lon="0.58787">
        <ele>28.5</ele>
        <time>2021-07-29T16:56:05Z</time>
      </trkpt>
      <trkpt lat="49.34289" lon="0.58776">
        <ele>28.5</ele>
        <time>2021-07-29T16:56:06Z</time>
      </trkpt>
      <trkpt lat="49.3429" lon="0.58764">
        <ele>28.5</ele>
        <time>2021-07-29T16:56:07Z</time>
      </trkpt>
      <trkpt lat="49.34292" lon="0.58752">
        <ele>28.98</ele>
        <time>2021-07-29T16:56:08Z</time>
      </trkpt>
      <trkpt lat="49.34294" lon="0.58738">
        <ele>28.02</ele>
        <time>2021-07-29T16:56:09Z</time>
      </trkpt>
      <trkpt lat="49.34296" lon="0.58723">
        <ele>28.02</ele>
        <time>2021-07-29T16:56:10Z</time>
      </trkpt>
      <trkpt lat="49.3434" lon="0.58552">
        <ele>30.42</ele>
        <time>2021-07-29T16:56:21Z</time>
      </trkpt>
      <trkpt lat="49.34409" lon="0.58281">
        <ele>29.94</ele>
        <time>2021-07-29T16:56:34Z</time>
      </trkpt>
      <trkpt lat="49.34489" lon="0.57968">
        <ele>28.02</ele>
        <time>2021-07-29T16:56:49Z</time>
      </trkpt>
      <trkpt lat="49.34605" lon="0.5752">
        <ele>27.53</ele>
        <time>2021-07-29T16:57:08Z</time>
      </trkpt>
      <trkpt lat="49.34758" lon="0.56915">
        <ele>26.09</ele>
        <time>2021-07-29T16:57:33Z</time>
      </trkpt>
      <trkpt lat="49.34846" lon="0.56576">
        <ele>27.05</ele>
        <time>2021-07-29T16:57:48Z</time>
      </trkpt>
      <trkpt lat="49.34905" lon="0.56356">
        <ele>28.02</ele>
        <time>2021-07-29T16:57:57Z</time>
      </trkpt>
      <trkpt lat="49.35013" lon="0.55974">
        <ele>24.65</ele>
        <time>2021-07-29T16:58:14Z</time>
      </trkpt>
      <trkpt lat="49.35039" lon="0.55804">
        <ele>22.73</ele>
        <time>2021-07-29T16:58:22Z</time>
      </trkpt>
      <trkpt lat="49.35021" lon="0.55595">
        <ele>20.81</ele>
        <time>2021-07-29T16:58:31Z</time>
      </trkpt>
      <trkpt lat="49.34938" lon="0.55306">
        <ele>13.12</ele>
        <time>2021-07-29T16:58:43Z</time>
      </trkpt>
      <trkpt lat="49.34751" lon="0.54665">
        <ele>12.63</ele>
        <time>2021-07-29T16:59:08Z</time>
      </trkpt>
      <trkpt lat="49.34698" lon="0.54417">
        <ele>11.67</ele>
        <time>2021-07-29T16:59:18Z</time>
      </trkpt>
      <trkpt lat="49.34691" lon="0.54307">
        <ele>11.67</ele>
        <time>2021-07-29T16:59:25Z</time>
      </trkpt>
      <trkpt lat="49.3469" lon="0.5427">
        <ele>11.67</ele>
        <time>2021-07-29T16:59:30Z</time>
      </trkpt>
      <trkpt lat="49.34696" lon="0.54263">
        <ele>11.67</ele>
        <time>2021-07-29T16:59:31Z</time>
      </trkpt>
      <trkpt lat="49.34703" lon="0.54253">
        <ele>11.67</ele>
        <time>2021-07-29T16:59:33Z</time>
      </trkpt>
      <trkpt lat="49.34704" lon="0.54246">
        <ele>11.67</ele>
        <time>2021-07-29T16:59:34Z</time>
      </trkpt>
      <trkpt lat="49.34705" lon="0.54239">
        <ele>12.15</ele>
        <time>2021-07-29T16:59:35Z</time>
      </trkpt>
      <trkpt lat="49.34702" lon="0.54233">
        <ele>12.15</ele>
        <time>2021-07-29T16:59:36Z</time>
      </trkpt>
      <trkpt lat="49.34699" lon="0.54226">
        <ele>12.15</ele>
        <time>2021-07-29T16:59:37Z</time>
      </trkpt>
      <trkpt lat="49.34698" lon="0.54224">
        <ele>12.63</ele>
        <time>2021-07-29T16:59:38Z</time>
      </trkpt>
      <trkpt lat="49.34689" lon="0.54211">
        <ele>12.63</ele>
        <time>2021-07-29T16:59:39Z</time>
      </trkpt>
      <trkpt lat="49.34688" lon="0.54202">
        <ele>13.12</ele>
        <time>2021-07-29T16:59:40Z</time>
      </trkpt>
      <trkpt lat="49.34688" lon="0.54192">
        <ele>13.12</ele>
        <time>2021-07-29T16:59:41Z</time>
      </trkpt>
      <trkpt lat="49.34688" lon="0.54181">
        <ele>13.12</ele>
        <time>2021-07-29T16:59:42Z</time>
      </trkpt>
      <trkpt lat="49.34688" lon="0.54171">
        <ele>13.12</ele>
        <time>2021-07-29T16:59:43Z</time>
      </trkpt>
      <trkpt lat="49.34691" lon="0.54053">
        <ele>11.67</ele>
        <time>2021-07-29T16:59:51Z</time>
      </trkpt>
      <trkpt lat="49.34732" lon="0.53812">
        <ele>12.15</ele>
        <time>2021-07-29T17:00:03Z</time>
      </trkpt>
      <trkpt lat="49.34861" lon="0.53344">
        <ele>11.19</ele>
        <time>2021-07-29T17:00:24Z</time>
      </trkpt>
      <trkpt lat="49.34911" lon="0.53158">
        <ele>10.71</ele>
        <time>2021-07-29T17:00:35Z</time>
      </trkpt>
      <trkpt lat="49.3492" lon="0.53103">
        <ele>10.23</ele>
        <time>2021-07-29T17:00:43Z</time>
      </trkpt>
      <trkpt lat="49.3492" lon="0.53101">
        <ele>10.23</ele>
        <time>2021-07-29T17:01:00Z</time>
      </trkpt>
      <trkpt lat="49.34926" lon="0.53056">
        <ele>10.23</ele>
        <time>2021-07-29T17:01:08Z</time>
      </trkpt>
      <trkpt lat="49.34934" lon="0.52937">
        <ele>8.31</ele>
        <time>2021-07-29T17:01:17Z</time>
      </trkpt>
      <trkpt lat="49.34912" lon="0.52736">
        <ele>9.75</ele>
        <time>2021-07-29T17:01:29Z</time>
      </trkpt>
      <trkpt lat="49.34893" lon="0.52481">
        <ele>8.79</ele>
        <time>2021-07-29T17:01:43Z</time>
      </trkpt>
      <trkpt lat="49.34922" lon="0.52309">
        <ele>8.31</ele>
        <time>2021-07-29T17:01:52Z</time>
      </trkpt>
      <trkpt lat="49.34983" lon="0.52174">
        <ele>11.19</ele>
        <time>2021-07-29T17:02:01Z</time>
      </trkpt>
      <trkpt lat="49.35005" lon="0.52124">
        <ele>10.23</ele>
        <time>2021-07-29T17:02:07Z</time>
      </trkpt>
      <trkpt lat="49.35018" lon="0.52113">
        <ele>10.71</ele>
        <time>2021-07-29T17:02:16Z</time>
      </trkpt>
      <trkpt lat="49.35022" lon="0.52114">
        <ele>10.71</ele>
        <time>2021-07-29T17:02:17Z</time>
      </trkpt>
      <trkpt lat="49.35027" lon="0.52108">
        <ele>10.71</ele>
        <time>2021-07-29T17:02:18Z</time>
      </trkpt>
      <trkpt lat="49.35031" lon="0.52102">
        <ele>10.71</ele>
        <time>2021-07-29T17:02:19Z</time>
      </trkpt>
      <trkpt lat="49.35034" lon="0.52094">
        <ele>10.71</ele>
        <time>2021-07-29T17:02:20Z</time>
      </trkpt>
      <trkpt lat="49.35033" lon="0.52084">
        <ele>10.71</ele>
        <time>2021-07-29T17:02:21Z</time>
      </trkpt>
      <trkpt lat="49.35031" lon="0.52075">
        <ele>10.23</ele>
        <time>2021-07-29T17:02:22Z</time>
      </trkpt>
      <trkpt lat="49.35031" lon="0.52074">
        <ele>10.23</ele>
        <time>2021-07-29T17:02:23Z</time>
      </trkpt>
      <trkpt lat="49.35024" lon="0.52053">
        <ele>10.23</ele>
        <time>2021-07-29T17:02:24Z</time>
      </trkpt>
      <trkpt lat="49.35026" lon="0.52043">
        <ele>10.23</ele>
        <time>2021-07-29T17:02:25Z</time>
      </trkpt>
      <trkpt lat="49.35028" lon="0.52031">
        <ele>10.23</ele>
        <time>2021-07-29T17:02:26Z</time>
      </trkpt>
      <trkpt lat="49.3503" lon="0.52019">
        <ele>9.75</ele>
        <time>2021-07-29T17:02:27Z</time>
      </trkpt>
      <trkpt lat="49.35036" lon="0.51995">
        <ele>9.75</ele>
        <time>2021-07-29T17:02:28Z</time>
      </trkpt>
      <trkpt lat="49.35036" lon="0.51995">
        <ele>9.75</ele>
        <time>2021-07-29T17:02:29Z</time>
      </trkpt>
      <trkpt lat="49.35039" lon="0.51982">
        <ele>8.79</ele>
        <time>2021-07-29T17:02:30Z</time>
      </trkpt>
      <trkpt lat="49.35044" lon="0.51967">
        <ele>8.31</ele>
        <time>2021-07-29T17:02:31Z</time>
      </trkpt>
      <trkpt lat="49.3512" lon="0.5175">
        <ele>7.35</ele>
        <time>2021-07-29T17:02:45Z</time>
      </trkpt>
      <trkpt lat="49.35203" lon="0.51515">
        <ele>6.87</ele>
        <time>2021-07-29T17:03:00Z</time>
      </trkpt>
      <trkpt lat="49.35228" lon="0.51444">
        <ele>6.39</ele>
        <time>2021-07-29T17:03:09Z</time>
      </trkpt>
      <trkpt lat="49.35249" lon="0.51392">
        <ele>6.39</ele>
        <time>2021-07-29T17:03:20Z</time>
      </trkpt>
      <trkpt lat="49.35258" lon="0.51363">
        <ele>7.35</ele>
        <time>2021-07-29T17:03:27Z</time>
      </trkpt>
      <trkpt lat="49.3526" lon="0.51359">
        <ele>7.35</ele>
        <time>2021-07-29T17:03:28Z</time>
      </trkpt>
      <trkpt lat="49.35263" lon="0.51354">
        <ele>7.35</ele>
        <time>2021-07-29T17:03:29Z</time>
      </trkpt>
      <trkpt lat="49.35265" lon="0.51348">
        <ele>7.35</ele>
        <time>2021-07-29T17:03:30Z</time>
      </trkpt>
      <trkpt lat="49.35268" lon="0.51341">
        <ele>7.35</ele>
        <time>2021-07-29T17:03:31Z</time>
      </trkpt>
      <trkpt lat="49.35272" lon="0.51333">
        <ele>7.35</ele>
        <time>2021-07-29T17:03:32Z</time>
      </trkpt>
      <trkpt lat="49.35275" lon="0.51325">
        <ele>7.35</ele>
        <time>2021-07-29T17:03:33Z</time>
      </trkpt>
      <trkpt lat="49.35305" lon="0.51263">
        <ele>7.83</ele>
        <time>2021-07-29T17:03:44Z</time>
      </trkpt>
      <trkpt lat="49.35318" lon="0.51253">
        <ele>7.83</ele>
        <time>2021-07-29T17:04:10Z</time>
      </trkpt>
      <trkpt lat="49.35318" lon="0.51248">
        <ele>7.83</ele>
        <time>2021-07-29T17:04:11Z</time>
      </trkpt>
      <trkpt lat="49.35335" lon="0.51208">
        <ele>7.35</ele>
        <time>2021-07-29T17:04:17Z</time>
      </trkpt>
      <trkpt lat="49.3534" lon="0.51201">
        <ele>7.35</ele>
        <time>2021-07-29T17:04:18Z</time>
      </trkpt>
      <trkpt lat="49.35352" lon="0.5119">
        <ele>7.35</ele>
        <time>2021-07-29T17:04:19Z</time>
      </trkpt>
      <trkpt lat="49.35359" lon="0.51186">
        <ele>7.35</ele>
        <time>2021-07-29T17:04:20Z</time>
      </trkpt>
      <trkpt lat="49.35359" lon="0.51186">
        <ele>7.35</ele>
        <time>2021-07-29T17:04:21Z</time>
      </trkpt>
      <trkpt lat="49.35453" lon="0.51127">
        <ele>6.87</ele>
        <time>2021-07-29T17:04:34Z</time>
      </trkpt>
      <trkpt lat="49.3549" lon="0.5111">
        <ele>6.39</ele>
        <time>2021-07-29T17:04:40Z</time>
      </trkpt>
      <trkpt lat="49.35496" lon="0.51101">
        <ele>5.91</ele>
        <time>2021-07-29T17:04:41Z</time>
      </trkpt>
      <trkpt lat="49.35566" lon="0.51059">
        <ele>6.39</ele>
        <time>2021-07-29T17:04:50Z</time>
      </trkpt>
      <trkpt lat="49.35612" lon="0.51031">
        <ele>5.91</ele>
        <time>2021-07-29T17:04:58Z</time>
      </trkpt>
      <trkpt lat="49.35711" lon="0.50969">
        <ele>3.98</ele>
        <time>2021-07-29T17:05:11Z</time>
      </trkpt>
      <trkpt lat="49.35815" lon="0.50904">
        <ele>3.98</ele>
        <time>2021-07-29T17:05:25Z</time>
      </trkpt>
      <trkpt lat="49.35821" lon="0.50902">
        <ele>4.46</ele>
        <time>2021-07-29T17:05:26Z</time>
      </trkpt>
      <trkpt lat="49.35837" lon="0.50899">
        <ele>4.94</ele>
        <time>2021-07-29T17:05:32Z</time>
      </trkpt>
      <trkpt lat="49.35843" lon="0.50894">
        <ele>4.94</ele>
        <time>2021-07-29T17:05:35Z</time>
      </trkpt>
      <trkpt lat="49.35845" lon="0.50889">
        <ele>4.94</ele>
        <time>2021-07-29T17:05:36Z</time>
      </trkpt>
      <trkpt lat="49.35847" lon="0.50882">
        <ele>4.94</ele>
        <time>2021-07-29T17:05:37Z</time>
      </trkpt>
      <trkpt lat="49.3588" lon="0.50782">
        <ele>3.98</ele>
        <time>2021-07-29T17:05:45Z</time>
      </trkpt>
      <trkpt lat="49.35958" lon="0.50549">
        <ele>3.5</ele>
        <time>2021-07-29T17:06:01Z</time>
      </trkpt>
      <trkpt lat="49.35962" lon="0.50524">
        <ele>3.5</ele>
        <time>2021-07-29T17:06:06Z</time>
      </trkpt>
      <trkpt lat="49.35961" lon="0.50522">
        <ele>3.5</ele>
        <time>2021-07-29T17:06:07Z</time>
      </trkpt>
      <trkpt lat="49.35953" lon="0.50509">
        <ele>3.5</ele>
        <time>2021-07-29T17:06:08Z</time>
      </trkpt>
      <trkpt lat="49.35892" lon="0.50423">
        <ele>3.98</ele>
        <time>2021-07-29T17:06:19Z</time>
      </trkpt>
      <trkpt lat="49.35741" lon="0.5022">
        <ele>3.02</ele>
        <time>2021-07-29T17:06:37Z</time>
      </trkpt>
      <trkpt lat="49.3562" lon="0.50057">
        <ele>3.02</ele>
        <time>2021-07-29T17:06:53Z</time>
      </trkpt>
      <trkpt lat="49.35526" lon="0.49951">
        <ele>2.06</ele>
        <time>2021-07-29T17:07:06Z</time>
      </trkpt>
      <trkpt lat="49.35517" lon="0.49942">
        <ele>3.02</ele>
        <time>2021-07-29T17:07:08Z</time>
      </trkpt>
      <trkpt lat="49.35513" lon="0.49938">
        <ele>3.5</ele>
        <time>2021-07-29T17:07:09Z</time>
      </trkpt>
      <trkpt lat="49.35511" lon="0.49924">
        <ele>3.5</ele>
        <time>2021-07-29T17:07:10Z</time>
      </trkpt>
      <trkpt lat="49.3551" lon="0.49918">
        <ele>3.98</ele>
        <time>2021-07-29T17:07:11Z</time>
      </trkpt>
      <trkpt lat="49.35507" lon="0.49915">
        <ele>3.98</ele>
        <time>2021-07-29T17:07:12Z</time>
      </trkpt>
      <trkpt lat="49.35507" lon="0.49915">
        <ele>4.46</ele>
        <time>2021-07-29T17:07:13Z</time>
      </trkpt>
      <trkpt lat="49.355" lon="0.49917">
        <ele>3.98</ele>
        <time>2021-07-29T17:07:14Z</time>
      </trkpt>
      <trkpt lat="49.35483" lon="0.49911">
        <ele>3.98</ele>
        <time>2021-07-29T17:07:15Z</time>
      </trkpt>
      <trkpt lat="49.35477" lon="0.49906">
        <ele>3.5</ele>
        <time>2021-07-29T17:07:16Z</time>
      </trkpt>
      <trkpt lat="49.35471" lon="0.49901">
        <ele>3.5</ele>
        <time>2021-07-29T17:07:17Z</time>
      </trkpt>
      <trkpt lat="49.35464" lon="0.49895">
        <ele>3.5</ele>
        <time>2021-07-29T17:07:18Z</time>
      </trkpt>
      <trkpt lat="49.35464" lon="0.49895">
        <ele>3.98</ele>
        <time>2021-07-29T17:07:19Z</time>
      </trkpt>
      <trkpt lat="49.35352" lon="0.49808">
        <ele>4.94</ele>
        <time>2021-07-29T17:07:33Z</time>
      </trkpt>
      <trkpt lat="49.35289" lon="0.49744">
        <ele>6.39</ele>
        <time>2021-07-29T17:07:42Z</time>
      </trkpt>
      <trkpt lat="49.35281" lon="0.49733">
        <ele>7.83</ele>
        <time>2021-07-29T17:07:43Z</time>
      </trkpt>
      <trkpt lat="49.35274" lon="0.49719">
        <ele>9.27</ele>
        <time>2021-07-29T17:07:44Z</time>
      </trkpt>
      <trkpt lat="49.35268" lon="0.49704">
        <ele>9.75</ele>
        <time>2021-07-29T17:07:45Z</time>
      </trkpt>
      <trkpt lat="49.35264" lon="0.49688">
        <ele>9.75</ele>
        <time>2021-07-29T17:07:46Z</time>
      </trkpt>
      <trkpt lat="49.35259" lon="0.49671">
        <ele>11.19</ele>
        <time>2021-07-29T17:07:47Z</time>
      </trkpt>
      <trkpt lat="49.35256" lon="0.49652">
        <ele>11.67</ele>
        <time>2021-07-29T17:07:48Z</time>
      </trkpt>
      <trkpt lat="49.35255" lon="0.49631">
        <ele>13.12</ele>
        <time>2021-07-29T17:07:49Z</time>
      </trkpt>
      <trkpt lat="49.35255" lon="0.49611">
        <ele>14.08</ele>
        <time>2021-07-29T17:07:50Z</time>
      </trkpt>
      <trkpt lat="49.35254" lon="0.49589">
        <ele>14.56</ele>
        <time>2021-07-29T17:07:51Z</time>
      </trkpt>
      <trkpt lat="49.35257" lon="0.49568">
        <ele>15.52</ele>
        <time>2021-07-29T17:07:52Z</time>
      </trkpt>
      <trkpt lat="49.3526" lon="0.49545">
        <ele>16</ele>
        <time>2021-07-29T17:07:53Z</time>
      </trkpt>
      <trkpt lat="49.3529" lon="0.49401">
        <ele>20.81</ele>
        <time>2021-07-29T17:08:01Z</time>
      </trkpt>
      <trkpt lat="49.35298" lon="0.49362">
        <ele>22.25</ele>
        <time>2021-07-29T17:08:04Z</time>
      </trkpt>
      <trkpt lat="49.353" lon="0.4935">
        <ele>22.25</ele>
        <time>2021-07-29T17:08:05Z</time>
      </trkpt>
      <trkpt lat="49.35306" lon="0.49308">
        <ele>21.77</ele>
        <time>2021-07-29T17:08:08Z</time>
      </trkpt>
      <trkpt lat="49.35308" lon="0.49291">
        <ele>21.77</ele>
        <time>2021-07-29T17:08:09Z</time>
      </trkpt>
      <trkpt lat="49.35309" lon="0.49274">
        <ele>22.25</ele>
        <time>2021-07-29T17:08:10Z</time>
      </trkpt>
      <trkpt lat="49.35314" lon="0.49257">
        <ele>22.25</ele>
        <time>2021-07-29T17:08:11Z</time>
      </trkpt>
      <trkpt lat="49.35319" lon="0.49239">
        <ele>22.25</ele>
        <time>2021-07-29T17:08:12Z</time>
      </trkpt>
      <trkpt lat="49.3541" lon="0.49019">
        <ele>18.88</ele>
        <time>2021-07-29T17:08:24Z</time>
      </trkpt>
      <trkpt lat="49.35492" lon="0.48826">
        <ele>18.4</ele>
        <time>2021-07-29T17:08:35Z</time>
      </trkpt>
      <trkpt lat="49.35613" lon="0.4853">
        <ele>14.56</ele>
        <time>2021-07-29T17:08:50Z</time>
      </trkpt>
      <trkpt lat="49.3571" lon="0.48295">
        <ele>14.08</ele>
        <time>2021-07-29T17:08:59Z</time>
      </trkpt>
      <trkpt lat="49.35871" lon="0.479">
        <ele>12.15</ele>
        <time>2021-07-29T17:09:15Z</time>
      </trkpt>
      <trkpt lat="49.36052" lon="0.47466">
        <ele>11.19</ele>
        <time>2021-07-29T17:09:34Z</time>
      </trkpt>
      <trkpt lat="49.36198" lon="0.4711">
        <ele>14.56</ele>
        <time>2021-07-29T17:09:51Z</time>
      </trkpt>
      <trkpt lat="49.36265" lon="0.46921">
        <ele>8.79</ele>
        <time>2021-07-29T17:10:01Z</time>
      </trkpt>
      <trkpt lat="49.36298" lon="0.46849">
        <ele>9.27</ele>
        <time>2021-07-29T17:10:06Z</time>
      </trkpt>
      <trkpt lat="49.36302" lon="0.46838">
        <ele>10.71</ele>
        <time>2021-07-29T17:10:07Z</time>
      </trkpt>
      <trkpt lat="49.36304" lon="0.46825">
        <ele>11.67</ele>
        <time>2021-07-29T17:10:08Z</time>
      </trkpt>
      <trkpt lat="49.36307" lon="0.46811">
        <ele>12.15</ele>
        <time>2021-07-29T17:10:09Z</time>
      </trkpt>
      <trkpt lat="49.3631" lon="0.46796">
        <ele>11.67</ele>
        <time>2021-07-29T17:10:10Z</time>
      </trkpt>
      <trkpt lat="49.36314" lon="0.46782">
        <ele>11.19</ele>
        <time>2021-07-29T17:10:11Z</time>
      </trkpt>
      <trkpt lat="49.36316" lon="0.46737">
        <ele>9.27</ele>
        <time>2021-07-29T17:10:14Z</time>
      </trkpt>
      <trkpt lat="49.36321" lon="0.46702">
        <ele>9.27</ele>
        <time>2021-07-29T17:10:17Z</time>
      </trkpt>
      <trkpt lat="49.36323" lon="0.46694">
        <ele>8.79</ele>
        <time>2021-07-29T17:10:18Z</time>
      </trkpt>
      <trkpt lat="49.36324" lon="0.46687">
        <ele>8.79</ele>
        <time>2021-07-29T17:10:19Z</time>
      </trkpt>
      <trkpt lat="49.36338" lon="0.46683">
        <ele>9.27</ele>
        <time>2021-07-29T17:10:20Z</time>
      </trkpt>
      <trkpt lat="49.36339" lon="0.46683">
        <ele>8.79</ele>
        <time>2021-07-29T17:10:21Z</time>
      </trkpt>
      <trkpt lat="49.36345" lon="0.4668">
        <ele>8.79</ele>
        <time>2021-07-29T17:10:22Z</time>
      </trkpt>
      <trkpt lat="49.36352" lon="0.46672">
        <ele>8.31</ele>
        <time>2021-07-29T17:10:23Z</time>
      </trkpt>
      <trkpt lat="49.36355" lon="0.46664">
        <ele>7.83</ele>
        <time>2021-07-29T17:10:24Z</time>
      </trkpt>
      <trkpt lat="49.36355" lon="0.46651">
        <ele>7.35</ele>
        <time>2021-07-29T17:10:25Z</time>
      </trkpt>
      <trkpt lat="49.3635" lon="0.46646">
        <ele>7.35</ele>
        <time>2021-07-29T17:10:26Z</time>
      </trkpt>
      <trkpt lat="49.36345" lon="0.4664">
        <ele>7.83</ele>
        <time>2021-07-29T17:10:27Z</time>
      </trkpt>
      <trkpt lat="49.3634" lon="0.46616">
        <ele>7.35</ele>
        <time>2021-07-29T17:10:28Z</time>
      </trkpt>
      <trkpt lat="49.36342" lon="0.46606">
        <ele>7.35</ele>
        <time>2021-07-29T17:10:29Z</time>
      </trkpt>
      <trkpt lat="49.36346" lon="0.46594">
        <ele>6.87</ele>
        <time>2021-07-29T17:10:30Z</time>
      </trkpt>
      <trkpt lat="49.36349" lon="0.46579">
        <ele>6.87</ele>
        <time>2021-07-29T17:10:31Z</time>
      </trkpt>
      <trkpt lat="49.36398" lon="0.46398">
        <ele>8.79</ele>
        <time>2021-07-29T17:10:43Z</time>
      </trkpt>
      <trkpt lat="49.36422" lon="0.46292">
        <ele>14.08</ele>
        <time>2021-07-29T17:10:50Z</time>
      </trkpt>
      <trkpt lat="49.36423" lon="0.46279">
        <ele>14.56</ele>
        <time>2021-07-29T17:10:51Z</time>
      </trkpt>
      <trkpt lat="49.36422" lon="0.46269">
        <ele>15.52</ele>
        <time>2021-07-29T17:10:52Z</time>
      </trkpt>
      <trkpt lat="49.3642" lon="0.46256">
        <ele>16.48</ele>
        <time>2021-07-29T17:10:53Z</time>
      </trkpt>
      <trkpt lat="49.36417" lon="0.46246">
        <ele>17.44</ele>
        <time>2021-07-29T17:10:54Z</time>
      </trkpt>
      <trkpt lat="49.36412" lon="0.46233">
        <ele>18.88</ele>
        <time>2021-07-29T17:10:55Z</time>
      </trkpt>
      <trkpt lat="49.36339" lon="0.46062">
        <ele>28.5</ele>
        <time>2021-07-29T17:11:07Z</time>
      </trkpt>
      <trkpt lat="49.36243" lon="0.45864">
        <ele>36.19</ele>
        <time>2021-07-29T17:11:17Z</time>
      </trkpt>
      <trkpt lat="49.36111" lon="0.45701">
        <ele>51.57</ele>
        <time>2021-07-29T17:11:28Z</time>
      </trkpt>
      <trkpt lat="49.36013" lon="0.45573">
        <ele>60.7</ele>
        <time>2021-07-29T17:11:35Z</time>
      </trkpt>
      <trkpt lat="49.36001" lon="0.45552">
        <ele>62.14</ele>
        <time>2021-07-29T17:11:36Z</time>
      </trkpt>
      <trkpt lat="49.35991" lon="0.45528">
        <ele>63.1</ele>
        <time>2021-07-29T17:11:37Z</time>
      </trkpt>
      <trkpt lat="49.35983" lon="0.45504">
        <ele>64.07</ele>
        <time>2021-07-29T17:11:38Z</time>
      </trkpt>
      <trkpt lat="49.35979" lon="0.45477">
        <ele>65.03</ele>
        <time>2021-07-29T17:11:39Z</time>
      </trkpt>
      <trkpt lat="49.35974" lon="0.45449">
        <ele>65.99</ele>
        <time>2021-07-29T17:11:40Z</time>
      </trkpt>
      <trkpt lat="49.35974" lon="0.45423">
        <ele>66.47</ele>
        <time>2021-07-29T17:11:41Z</time>
      </trkpt>
      <trkpt lat="49.35975" lon="0.45397">
        <ele>67.91</ele>
        <time>2021-07-29T17:11:42Z</time>
      </trkpt>
      <trkpt lat="49.35983" lon="0.45217">
        <ele>73.2</ele>
        <time>2021-07-29T17:11:49Z</time>
      </trkpt>
      <trkpt lat="49.35983" lon="0.45193">
        <ele>76.08</ele>
        <time>2021-07-29T17:11:50Z</time>
      </trkpt>
      <trkpt lat="49.35979" lon="0.45167">
        <ele>78.48</ele>
        <time>2021-07-29T17:11:51Z</time>
      </trkpt>
      <trkpt lat="49.35945" lon="0.44962">
        <ele>88.1</ele>
        <time>2021-07-29T17:11:58Z</time>
      </trkpt>
      <trkpt lat="49.35945" lon="0.44962">
        <ele>89.54</ele>
        <time>2021-07-29T17:11:59Z</time>
      </trkpt>
      <trkpt lat="49.35943" lon="0.44935">
        <ele>90.5</ele>
        <time>2021-07-29T17:12:00Z</time>
      </trkpt>
      <trkpt lat="49.35946" lon="0.44907">
        <ele>92.42</ele>
        <time>2021-07-29T17:12:01Z</time>
      </trkpt>
      <trkpt lat="49.3595" lon="0.4488">
        <ele>93.39</ele>
        <time>2021-07-29T17:12:02Z</time>
      </trkpt>
      <trkpt lat="49.35958" lon="0.44854">
        <ele>94.35</ele>
        <time>2021-07-29T17:12:03Z</time>
      </trkpt>
      <trkpt lat="49.35967" lon="0.4483">
        <ele>95.31</ele>
        <time>2021-07-29T17:12:04Z</time>
      </trkpt>
      <trkpt lat="49.35978" lon="0.44807">
        <ele>96.75</ele>
        <time>2021-07-29T17:12:05Z</time>
      </trkpt>
      <trkpt lat="49.35991" lon="0.44786">
        <ele>97.71</ele>
        <time>2021-07-29T17:12:06Z</time>
      </trkpt>
      <trkpt lat="49.36006" lon="0.44769">
        <ele>99.15</ele>
        <time>2021-07-29T17:12:07Z</time>
      </trkpt>
      <trkpt lat="49.36022" lon="0.44754">
        <ele>100.6</ele>
        <time>2021-07-29T17:12:08Z</time>
      </trkpt>
      <trkpt lat="49.36188" lon="0.44581">
        <ele>114.05</ele>
        <time>2021-07-29T17:12:18Z</time>
      </trkpt>
      <trkpt lat="49.36188" lon="0.44581">
        <ele>114.05</ele>
        <time>2021-07-29T17:12:19Z</time>
      </trkpt>
      <trkpt lat="49.36197" lon="0.4456">
        <ele>115.5</ele>
        <time>2021-07-29T17:12:20Z</time>
      </trkpt>
      <trkpt lat="49.36206" lon="0.44537">
        <ele>116.94</ele>
        <time>2021-07-29T17:12:21Z</time>
      </trkpt>
      <trkpt lat="49.36212" lon="0.44511">
        <ele>117.42</ele>
        <time>2021-07-29T17:12:22Z</time>
      </trkpt>
      <trkpt lat="49.36215" lon="0.44486">
        <ele>116.94</ele>
        <time>2021-07-29T17:12:23Z</time>
      </trkpt>
      <trkpt lat="49.36217" lon="0.44458">
        <ele>116.46</ele>
        <time>2021-07-29T17:12:24Z</time>
      </trkpt>
      <trkpt lat="49.36241" lon="0.44118">
        <ele>122.22</ele>
        <time>2021-07-29T17:12:35Z</time>
      </trkpt>
      <trkpt lat="49.36276" lon="0.43637">
        <ele>124.63</ele>
        <time>2021-07-29T17:12:51Z</time>
      </trkpt>
      <trkpt lat="49.36334" lon="0.42839">
        <ele>125.59</ele>
        <time>2021-07-29T17:13:18Z</time>
      </trkpt>
      <trkpt lat="49.36377" lon="0.42238">
        <ele>118.86</ele>
        <time>2021-07-29T17:13:37Z</time>
      </trkpt>
      <trkpt lat="49.36432" lon="0.41455">
        <ele>116.46</ele>
        <time>2021-07-29T17:14:02Z</time>
      </trkpt>
      <trkpt lat="49.36452" lon="0.41185">
        <ele>117.42</ele>
        <time>2021-07-29T17:14:14Z</time>
      </trkpt>
      <trkpt lat="49.36472" lon="0.41073">
        <ele>115.5</ele>
        <time>2021-07-29T17:14:21Z</time>
      </trkpt>
      <trkpt lat="49.3651" lon="0.40874">
        <ele>114.53</ele>
        <time>2021-07-29T17:14:37Z</time>
      </trkpt>
      <trkpt lat="49.36511" lon="0.40854">
        <ele>114.05</ele>
        <time>2021-07-29T17:14:40Z</time>
      </trkpt>
      <trkpt lat="49.3651" lon="0.40842">
        <ele>114.05</ele>
        <time>2021-07-29T17:14:41Z</time>
      </trkpt>
      <trkpt lat="49.3651" lon="0.40842">
        <ele>114.05</ele>
        <time>2021-07-29T17:14:42Z</time>
      </trkpt>
      <trkpt lat="49.36509" lon="0.40835">
        <ele>114.05</ele>
        <time>2021-07-29T17:14:43Z</time>
      </trkpt>
      <trkpt lat="49.36508" lon="0.40831">
        <ele>114.05</ele>
        <time>2021-07-29T17:14:44Z</time>
      </trkpt>
      <trkpt lat="49.365" lon="0.40817">
        <ele>114.05</ele>
        <time>2021-07-29T17:14:45Z</time>
      </trkpt>
      <trkpt lat="49.36449" lon="0.40716">
        <ele>114.05</ele>
        <time>2021-07-29T17:14:55Z</time>
      </trkpt>
      <trkpt lat="49.36329" lon="0.40469">
        <ele>114.53</ele>
        <time>2021-07-29T17:15:11Z</time>
      </trkpt>
      <trkpt lat="49.36202" lon="0.40212">
        <ele>116.94</ele>
        <time>2021-07-29T17:15:25Z</time>
      </trkpt>
      <trkpt lat="49.36002" lon="0.39805">
        <ele>121.74</ele>
        <time>2021-07-29T17:15:45Z</time>
      </trkpt>
      <trkpt lat="49.35879" lon="0.39547">
        <ele>123.67</ele>
        <time>2021-07-29T17:15:59Z</time>
      </trkpt>
      <trkpt lat="49.35873" lon="0.39529">
        <ele>123.67</ele>
        <time>2021-07-29T17:16:00Z</time>
      </trkpt>
      <trkpt lat="49.35871" lon="0.3951">
        <ele>124.15</ele>
        <time>2021-07-29T17:16:01Z</time>
      </trkpt>
      <trkpt lat="49.35869" lon="0.39494">
        <ele>125.11</ele>
        <time>2021-07-29T17:16:02Z</time>
      </trkpt>
      <trkpt lat="49.35867" lon="0.39479">
        <ele>125.11</ele>
        <time>2021-07-29T17:16:03Z</time>
      </trkpt>
      <trkpt lat="49.35866" lon="0.39467">
        <ele>124.63</ele>
        <time>2021-07-29T17:16:04Z</time>
      </trkpt>
      <trkpt lat="49.35865" lon="0.39457">
        <ele>125.11</ele>
        <time>2021-07-29T17:16:05Z</time>
      </trkpt>
      <trkpt lat="49.35864" lon="0.39449">
        <ele>125.11</ele>
        <time>2021-07-29T17:16:06Z</time>
      </trkpt>
      <trkpt lat="49.35863" lon="0.39444">
        <ele>125.11</ele>
        <time>2021-07-29T17:16:07Z</time>
      </trkpt>
      <trkpt lat="49.3587" lon="0.39431">
        <ele>125.11</ele>
        <time>2021-07-29T17:16:08Z</time>
      </trkpt>
      <trkpt lat="49.35869" lon="0.39421">
        <ele>125.11</ele>
        <time>2021-07-29T17:16:09Z</time>
      </trkpt>
      <trkpt lat="49.35868" lon="0.39411">
        <ele>125.11</ele>
        <time>2021-07-29T17:16:10Z</time>
      </trkpt>
      <trkpt lat="49.35865" lon="0.39402">
        <ele>125.11</ele>
        <time>2021-07-29T17:16:11Z</time>
      </trkpt>
      <trkpt lat="49.3586" lon="0.39395">
        <ele>125.11</ele>
        <time>2021-07-29T17:16:12Z</time>
      </trkpt>
      <trkpt lat="49.35854" lon="0.3939">
        <ele>125.11</ele>
        <time>2021-07-29T17:16:13Z</time>
      </trkpt>
      <trkpt lat="49.35848" lon="0.3939">
        <ele>125.11</ele>
        <time>2021-07-29T17:16:14Z</time>
      </trkpt>
      <trkpt lat="49.35842" lon="0.3939">
        <ele>125.11</ele>
        <time>2021-07-29T17:16:15Z</time>
      </trkpt>
      <trkpt lat="49.35837" lon="0.39389">
        <ele>124.63</ele>
        <time>2021-07-29T17:16:16Z</time>
      </trkpt>
      <trkpt lat="49.35832" lon="0.39388">
        <ele>124.63</ele>
        <time>2021-07-29T17:16:17Z</time>
      </trkpt>
      <trkpt lat="49.35826" lon="0.39385">
        <ele>124.63</ele>
        <time>2021-07-29T17:16:18Z</time>
      </trkpt>
      <trkpt lat="49.35819" lon="0.39382">
        <ele>124.15</ele>
        <time>2021-07-29T17:16:19Z</time>
      </trkpt>
      <trkpt lat="49.35811" lon="0.39379">
        <ele>124.15</ele>
        <time>2021-07-29T17:16:20Z</time>
      </trkpt>
      <trkpt lat="49.35733" lon="0.39287">
        <ele>124.15</ele>
        <time>2021-07-29T17:16:29Z</time>
      </trkpt>
      <trkpt lat="49.35622" lon="0.39033">
        <ele>126.07</ele>
        <time>2021-07-29T17:16:43Z</time>
      </trkpt>
      <trkpt lat="49.35529" lon="0.38748">
        <ele>124.63</ele>
        <time>2021-07-29T17:16:56Z</time>
      </trkpt>
      <trkpt lat="49.35388" lon="0.38242">
        <ele>127.99</ele>
        <time>2021-07-29T17:17:17Z</time>
      </trkpt>
      <trkpt lat="49.35294" lon="0.37904">
        <ele>125.11</ele>
        <time>2021-07-29T17:17:31Z</time>
      </trkpt>
      <trkpt lat="49.35264" lon="0.37794">
        <ele>124.15</ele>
        <time>2021-07-29T17:17:39Z</time>
      </trkpt>
      <trkpt lat="49.35212" lon="0.37606">
        <ele>122.71</ele>
        <time>2021-07-29T17:17:55Z</time>
      </trkpt>
      <trkpt lat="49.35152" lon="0.3739">
        <ele>120.3</ele>
        <time>2021-07-29T17:18:08Z</time>
      </trkpt>
      <trkpt lat="49.35118" lon="0.37271">
        <ele>120.78</ele>
        <time>2021-07-29T17:18:18Z</time>
      </trkpt>
      <trkpt lat="49.3511" lon="0.37242">
        <ele>121.74</ele>
        <time>2021-07-29T17:18:26Z</time>
      </trkpt>
      <trkpt lat="49.35096" lon="0.37182">
        <ele>122.22</ele>
        <time>2021-07-29T17:18:36Z</time>
      </trkpt>
      <trkpt lat="49.35075" lon="0.37092">
        <ele>123.19</ele>
        <time>2021-07-29T17:18:49Z</time>
      </trkpt>
      <trkpt lat="49.35071" lon="0.37073">
        <ele>123.19</ele>
        <time>2021-07-29T17:18:51Z</time>
      </trkpt>
      <trkpt lat="49.3507" lon="0.37064">
        <ele>122.71</ele>
        <time>2021-07-29T17:18:52Z</time>
      </trkpt>
      <trkpt lat="49.35069" lon="0.37054">
        <ele>122.71</ele>
        <time>2021-07-29T17:18:53Z</time>
      </trkpt>
      <trkpt lat="49.35071" lon="0.37033">
        <ele>122.71</ele>
        <time>2021-07-29T17:18:55Z</time>
      </trkpt>
      <trkpt lat="49.35073" lon="0.37022">
        <ele>122.71</ele>
        <time>2021-07-29T17:18:56Z</time>
      </trkpt>
      <trkpt lat="49.35073" lon="0.3701">
        <ele>122.71</ele>
        <time>2021-07-29T17:18:57Z</time>
      </trkpt>
      <trkpt lat="49.35069" lon="0.36998">
        <ele>122.71</ele>
        <time>2021-07-29T17:18:58Z</time>
      </trkpt>
      <trkpt lat="49.35065" lon="0.36991">
        <ele>122.71</ele>
        <time>2021-07-29T17:18:59Z</time>
      </trkpt>
      <trkpt lat="49.35058" lon="0.36989">
        <ele>122.71</ele>
        <time>2021-07-29T17:19:00Z</time>
      </trkpt>
      <trkpt lat="49.35051" lon="0.36986">
        <ele>123.19</ele>
        <time>2021-07-29T17:19:01Z</time>
      </trkpt>
      <trkpt lat="49.35042" lon="0.3697">
        <ele>123.19</ele>
        <time>2021-07-29T17:19:02Z</time>
      </trkpt>
      <trkpt lat="49.35039" lon="0.36958">
        <ele>122.71</ele>
        <time>2021-07-29T17:19:03Z</time>
      </trkpt>
      <trkpt lat="49.34984" lon="0.36775">
        <ele>121.74</ele>
        <time>2021-07-29T17:19:14Z</time>
      </trkpt>
      <trkpt lat="49.34911" lon="0.36513">
        <ele>121.26</ele>
        <time>2021-07-29T17:19:30Z</time>
      </trkpt>
      <trkpt lat="49.34858" lon="0.36327">
        <ele>121.26</ele>
        <time>2021-07-29T17:19:44Z</time>
      </trkpt>
      <trkpt lat="49.34842" lon="0.36271">
        <ele>121.26</ele>
        <time>2021-07-29T17:19:52Z</time>
      </trkpt>
      <trkpt lat="49.34824" lon="0.36199">
        <ele>120.78</ele>
        <time>2021-07-29T17:20:04Z</time>
      </trkpt>
      <trkpt lat="49.34822" lon="0.36191">
        <ele>120.78</ele>
        <time>2021-07-29T17:20:05Z</time>
      </trkpt>
      <trkpt lat="49.3482" lon="0.36185">
        <ele>120.78</ele>
        <time>2021-07-29T17:20:06Z</time>
      </trkpt>
      <trkpt lat="49.34829" lon="0.36152">
        <ele>120.78</ele>
        <time>2021-07-29T17:20:11Z</time>
      </trkpt>
      <trkpt lat="49.34827" lon="0.36144">
        <ele>120.78</ele>
        <time>2021-07-29T17:20:12Z</time>
      </trkpt>
      <trkpt lat="49.34825" lon="0.36139">
        <ele>120.78</ele>
        <time>2021-07-29T17:20:13Z</time>
      </trkpt>
      <trkpt lat="49.34822" lon="0.36133">
        <ele>120.78</ele>
        <time>2021-07-29T17:20:14Z</time>
      </trkpt>
      <trkpt lat="49.34818" lon="0.3613">
        <ele>120.3</ele>
        <time>2021-07-29T17:20:15Z</time>
      </trkpt>
      <trkpt lat="49.34813" lon="0.3613">
        <ele>120.3</ele>
        <time>2021-07-29T17:20:16Z</time>
      </trkpt>
      <trkpt lat="49.34808" lon="0.36129">
        <ele>120.78</ele>
        <time>2021-07-29T17:20:17Z</time>
      </trkpt>
      <trkpt lat="49.34804" lon="0.36128">
        <ele>120.78</ele>
        <time>2021-07-29T17:20:18Z</time>
      </trkpt>
      <trkpt lat="49.348" lon="0.36134">
        <ele>120.3</ele>
        <time>2021-07-29T17:20:19Z</time>
      </trkpt>
      <trkpt lat="49.34797" lon="0.36141">
        <ele>119.82</ele>
        <time>2021-07-29T17:20:20Z</time>
      </trkpt>
      <trkpt lat="49.34795" lon="0.36148">
        <ele>119.82</ele>
        <time>2021-07-29T17:20:21Z</time>
      </trkpt>
      <trkpt lat="49.34795" lon="0.36156">
        <ele>119.34</ele>
        <time>2021-07-29T17:20:22Z</time>
      </trkpt>
      <trkpt lat="49.34796" lon="0.36165">
        <ele>119.34</ele>
        <time>2021-07-29T17:20:23Z</time>
      </trkpt>
      <trkpt lat="49.34799" lon="0.36172">
        <ele>119.34</ele>
        <time>2021-07-29T17:20:24Z</time>
      </trkpt>
      <trkpt lat="49.34804" lon="0.36179">
        <ele>119.34</ele>
        <time>2021-07-29T17:20:25Z</time>
      </trkpt>
      <trkpt lat="49.3482" lon="0.36187">
        <ele>119.34</ele>
        <time>2021-07-29T17:20:27Z</time>
      </trkpt>
      <trkpt lat="49.34823" lon="0.36196">
        <ele>119.34</ele>
        <time>2021-07-29T17:20:28Z</time>
      </trkpt>
      <trkpt lat="49.34862" lon="0.3634">
        <ele>120.3</ele>
        <time>2021-07-29T17:20:41Z</time>
      </trkpt>
      <trkpt lat="49.34865" lon="0.3635">
        <ele>120.3</ele>
        <time>2021-07-29T17:20:42Z</time>
      </trkpt>
      <trkpt lat="49.34867" lon="0.36357">
        <ele>120.3</ele>
        <time>2021-07-29T17:20:43Z</time>
      </trkpt>
      <trkpt lat="49.34869" lon="0.36363">
        <ele>120.3</ele>
        <time>2021-07-29T17:20:44Z</time>
      </trkpt>
      <trkpt lat="49.3487" lon="0.36367">
        <ele>120.3</ele>
        <time>2021-07-29T17:20:45Z</time>
      </trkpt>
      <trkpt lat="49.34864" lon="0.3637">
        <ele>120.3</ele>
        <time>2021-07-29T17:20:46Z</time>
      </trkpt>
      <trkpt lat="49.34863" lon="0.36371">
        <ele>120.3</ele>
        <time>2021-07-29T17:21:04Z</time>
      </trkpt>
      <trkpt lat="49.34863" lon="0.36371">
        <ele>120.3</ele>
        <time>2021-07-29T17:21:10Z</time>
      </trkpt>
      <trkpt lat="49.34861" lon="0.36372">
        <ele>120.3</ele>
        <time>2021-07-29T17:21:11Z</time>
      </trkpt>
      <trkpt lat="49.34859" lon="0.36373">
        <ele>120.3</ele>
        <time>2021-07-29T17:21:12Z</time>
      </trkpt>
      <trkpt lat="49.34856" lon="0.36374">
        <ele>120.3</ele>
        <time>2021-07-29T17:21:13Z</time>
      </trkpt>
      <trkpt lat="49.34854" lon="0.36376">
        <ele>120.3</ele>
        <time>2021-07-29T17:21:14Z</time>
      </trkpt>
      <trkpt lat="49.34797" lon="0.36409">
        <ele>121.74</ele>
        <time>2021-07-29T17:21:28Z</time>
      </trkpt>
      <trkpt lat="49.3468" lon="0.36477">
        <ele>124.15</ele>
        <time>2021-07-29T17:21:54Z</time>
      </trkpt>
      <trkpt lat="49.34589" lon="0.36529">
        <ele>125.59</ele>
        <time>2021-07-29T17:22:13Z</time>
      </trkpt>
      <trkpt lat="49.34564" lon="0.36545">
        <ele>126.07</ele>
        <time>2021-07-29T17:22:22Z</time>
      </trkpt>
      <trkpt lat="49.34545" lon="0.36557">
        <ele>127.03</ele>
        <time>2021-07-29T17:22:36Z</time>
      </trkpt>
      <trkpt lat="49.34541" lon="0.36559">
        <ele>127.03</ele>
        <time>2021-07-29T17:22:37Z</time>
      </trkpt>
      <trkpt lat="49.34538" lon="0.36567">
        <ele>127.51</ele>
        <time>2021-07-29T17:22:38Z</time>
      </trkpt>
      <trkpt lat="49.34538" lon="0.36567">
        <ele>127.03</ele>
        <time>2021-07-29T17:22:39Z</time>
      </trkpt>
      <trkpt lat="49.34538" lon="0.3657">
        <ele>127.03</ele>
        <time>2021-07-29T17:22:40Z</time>
      </trkpt>
      <trkpt lat="49.34539" lon="0.36585">
        <ele>126.55</ele>
        <time>2021-07-29T17:22:52Z</time>
      </trkpt>
      <trkpt lat="49.34544" lon="0.36652">
        <ele>127.03</ele>
        <time>2021-07-29T17:23:04Z</time>
      </trkpt>
      <trkpt lat="49.34544" lon="0.36669">
        <ele>127.99</ele>
        <time>2021-07-29T17:23:16Z</time>
      </trkpt>
      <trkpt lat="49.34544" lon="0.36729">
        <ele>127.99</ele>
        <time>2021-07-29T17:23:27Z</time>
      </trkpt>
      <trkpt lat="49.34544" lon="0.36752">
        <ele>128.47</ele>
        <time>2021-07-29T17:23:37Z</time>
      </trkpt>
      <trkpt lat="49.34544" lon="0.36752">
        <ele>128.95</ele>
        <time>2021-07-29T17:23:43Z</time>
      </trkpt>
      <trkpt lat="49.3454" lon="0.36757">
        <ele>128.95</ele>
        <time>2021-07-29T17:23:44Z</time>
      </trkpt>
      <trkpt lat="49.34538" lon="0.36759">
        <ele>128.95</ele>
        <time>2021-07-29T17:23:45Z</time>
      </trkpt>
      <trkpt lat="49.34496" lon="0.36788">
        <ele>130.4</ele>
        <time>2021-07-29T17:24:03Z</time>
      </trkpt>
      <trkpt lat="49.34486" lon="0.36796">
        <ele>130.88</ele>
        <time>2021-07-29T17:24:13Z</time>
      </trkpt>
      <trkpt lat="49.34486" lon="0.36796">
        <ele>131.36</ele>
        <time>2021-07-29T17:24:38Z</time>
      </trkpt>
      <trkpt lat="49.34486" lon="0.36796">
        <ele>131.36</ele>
        <time>2021-07-29T17:31:30Z</time>
      </trkpt>
      <trkpt lat="49.34486" lon="0.36796">
        <ele>130.4</ele>
        <time>2021-07-29T17:36:16Z</time>
      </trkpt>
      <trkpt lat="49.34486" lon="0.36796">
        <ele>129.43</ele>
        <time>2021-07-29T17:39:50Z</time>
      </trkpt>
      <trkpt lat="49.34486" lon="0.36796">
        <ele>128.47</ele>
        <time>2021-07-29T17:41:55Z</time>
      </trkpt>
      <trkpt lat="49.34486" lon="0.36796">
        <ele>127.51</ele>
        <time>2021-07-29T17:46:13Z</time>
      </trkpt>
      <trkpt lat="49.34486" lon="0.36796">
        <ele>127.03</ele>
        <time>2021-07-29T17:49:45Z</time>
      </trkpt>
      <trkpt lat="49.34486" lon="0.36796">
        <ele>126.55</ele>
        <time>2021-07-29T17:50:44Z</time>
      </trkpt>
      <trkpt lat="49.34486" lon="0.36812">
        <ele>126.55</ele>
        <time>2021-07-29T17:50:56Z</time>
      </trkpt>
      <trkpt lat="49.34484" lon="0.36805">
        <ele>126.55</ele>
        <time>2021-07-29T17:51:14Z</time>
      </trkpt>
      <trkpt lat="49.34487" lon="0.36795">
        <ele>126.55</ele>
        <time>2021-07-29T17:51:19Z</time>
      </trkpt>
      <trkpt lat="49.34491" lon="0.36792">
        <ele>126.55</ele>
        <time>2021-07-29T17:51:20Z</time>
      </trkpt>
      <trkpt lat="49.34494" lon="0.3679">
        <ele>126.55</ele>
        <time>2021-07-29T17:51:21Z</time>
      </trkpt>
      <trkpt lat="49.34494" lon="0.3679">
        <ele>126.55</ele>
        <time>2021-07-29T17:51:22Z</time>
      </trkpt>
      <trkpt lat="49.34496" lon="0.36788">
        <ele>126.55</ele>
        <time>2021-07-29T17:51:23Z</time>
      </trkpt>
      <trkpt lat="49.3454" lon="0.36757">
        <ele>125.59</ele>
        <time>2021-07-29T17:51:40Z</time>
      </trkpt>
      <trkpt lat="49.34544" lon="0.36711">
        <ele>125.59</ele>
        <time>2021-07-29T17:51:50Z</time>
      </trkpt>
      <trkpt lat="49.34544" lon="0.36666">
        <ele>125.11</ele>
        <time>2021-07-29T17:51:57Z</time>
      </trkpt>
      <trkpt lat="49.34538" lon="0.36567">
        <ele>124.63</ele>
        <time>2021-07-29T17:52:13Z</time>
      </trkpt>
      <trkpt lat="49.34537" lon="0.36563">
        <ele>124.15</ele>
        <time>2021-07-29T17:52:14Z</time>
      </trkpt>
      <trkpt lat="49.34537" lon="0.36562">
        <ele>124.15</ele>
        <time>2021-07-29T17:52:15Z</time>
      </trkpt>
      <trkpt lat="49.34541" lon="0.36559">
        <ele>124.15</ele>
        <time>2021-07-29T17:52:16Z</time>
      </trkpt>
      <trkpt lat="49.34543" lon="0.36558">
        <ele>124.15</ele>
        <time>2021-07-29T17:52:17Z</time>
      </trkpt>
      <trkpt lat="49.34545" lon="0.36557">
        <ele>124.15</ele>
        <time>2021-07-29T17:52:18Z</time>
      </trkpt>
      <trkpt lat="49.34596" lon="0.36524">
        <ele>123.19</ele>
        <time>2021-07-29T17:52:33Z</time>
      </trkpt>
      <trkpt lat="49.34674" lon="0.3648">
        <ele>122.71</ele>
        <time>2021-07-29T17:52:52Z</time>
      </trkpt>
      <trkpt lat="49.34765" lon="0.36428">
        <ele>121.74</ele>
        <time>2021-07-29T17:53:11Z</time>
      </trkpt>
      <trkpt lat="49.34857" lon="0.36374">
        <ele>120.3</ele>
        <time>2021-07-29T17:53:31Z</time>
      </trkpt>
      <trkpt lat="49.34865" lon="0.36369">
        <ele>120.78</ele>
        <time>2021-07-29T17:53:40Z</time>
      </trkpt>
      <trkpt lat="49.34865" lon="0.36369">
        <ele>120.78</ele>
        <time>2021-07-29T17:54:14Z</time>
      </trkpt>
      <trkpt lat="49.34868" lon="0.36367">
        <ele>121.26</ele>
        <time>2021-07-29T17:54:15Z</time>
      </trkpt>
      <trkpt lat="49.34868" lon="0.36358">
        <ele>120.78</ele>
        <time>2021-07-29T17:54:16Z</time>
      </trkpt>
      <trkpt lat="49.34866" lon="0.36352">
        <ele>120.78</ele>
        <time>2021-07-29T17:54:17Z</time>
      </trkpt>
      <trkpt lat="49.34861" lon="0.36337">
        <ele>120.78</ele>
        <time>2021-07-29T17:54:18Z</time>
      </trkpt>
      <trkpt lat="49.34832" lon="0.36235">
        <ele>120.3</ele>
        <time>2021-07-29T17:54:30Z</time>
      </trkpt>
      <trkpt lat="49.34824" lon="0.36201">
        <ele>120.3</ele>
        <time>2021-07-29T17:54:34Z</time>
      </trkpt>
      <trkpt lat="49.34822" lon="0.36192">
        <ele>120.3</ele>
        <time>2021-07-29T17:54:35Z</time>
      </trkpt>
      <trkpt lat="49.3482" lon="0.36184">
        <ele>120.3</ele>
        <time>2021-07-29T17:54:36Z</time>
      </trkpt>
      <trkpt lat="49.34828" lon="0.36167">
        <ele>120.3</ele>
        <time>2021-07-29T17:54:38Z</time>
      </trkpt>
      <trkpt lat="49.34829" lon="0.36155">
        <ele>119.82</ele>
        <time>2021-07-29T17:54:39Z</time>
      </trkpt>
      <trkpt lat="49.34827" lon="0.36144">
        <ele>119.82</ele>
        <time>2021-07-29T17:54:40Z</time>
      </trkpt>
      <trkpt lat="49.34824" lon="0.36138">
        <ele>119.82</ele>
        <time>2021-07-29T17:54:41Z</time>
      </trkpt>
      <trkpt lat="49.34821" lon="0.36131">
        <ele>119.82</ele>
        <time>2021-07-29T17:54:42Z</time>
      </trkpt>
      <trkpt lat="49.34816" lon="0.3613">
        <ele>119.82</ele>
        <time>2021-07-29T17:54:43Z</time>
      </trkpt>
      <trkpt lat="49.34811" lon="0.36129">
        <ele>119.82</ele>
        <time>2021-07-29T17:54:44Z</time>
      </trkpt>
      <trkpt lat="49.34805" lon="0.36129">
        <ele>119.82</ele>
        <time>2021-07-29T17:54:45Z</time>
      </trkpt>
      <trkpt lat="49.34802" lon="0.36132">
        <ele>119.34</ele>
        <time>2021-07-29T17:54:46Z</time>
      </trkpt>
      <trkpt lat="49.34798" lon="0.36139">
        <ele>119.34</ele>
        <time>2021-07-29T17:54:47Z</time>
      </trkpt>
      <trkpt lat="49.34795" lon="0.36145">
        <ele>119.34</ele>
        <time>2021-07-29T17:54:48Z</time>
      </trkpt>
      <trkpt lat="49.34795" lon="0.36145">
        <ele>119.34</ele>
        <time>2021-07-29T17:54:49Z</time>
      </trkpt>
      <trkpt lat="49.34787" lon="0.36164">
        <ele>119.34</ele>
        <time>2021-07-29T17:54:50Z</time>
      </trkpt>
      <trkpt lat="49.34781" lon="0.36167">
        <ele>119.34</ele>
        <time>2021-07-29T17:54:51Z</time>
      </trkpt>
      <trkpt lat="49.34774" lon="0.3617">
        <ele>119.34</ele>
        <time>2021-07-29T17:54:52Z</time>
      </trkpt>
      <trkpt lat="49.34767" lon="0.36174">
        <ele>119.82</ele>
        <time>2021-07-29T17:54:53Z</time>
      </trkpt>
      <trkpt lat="49.34653" lon="0.36235">
        <ele>118.38</ele>
        <time>2021-07-29T17:55:05Z</time>
      </trkpt>
      <trkpt lat="49.34606" lon="0.36254">
        <ele>120.78</ele>
        <time>2021-07-29T17:55:09Z</time>
      </trkpt>
      <trkpt lat="49.34592" lon="0.36257">
        <ele>121.74</ele>
        <time>2021-07-29T17:55:10Z</time>
      </trkpt>
      <trkpt lat="49.34566" lon="0.36257">
        <ele>121.74</ele>
        <time>2021-07-29T17:55:11Z</time>
      </trkpt>
      <trkpt lat="49.34566" lon="0.36257">
        <ele>122.22</ele>
        <time>2021-07-29T17:55:12Z</time>
      </trkpt>
      <trkpt lat="49.34541" lon="0.36248">
        <ele>122.22</ele>
        <time>2021-07-29T17:55:13Z</time>
      </trkpt>
      <trkpt lat="49.34541" lon="0.36248">
        <ele>122.71</ele>
        <time>2021-07-29T17:55:14Z</time>
      </trkpt>
      <trkpt lat="49.34527" lon="0.36243">
        <ele>123.19</ele>
        <time>2021-07-29T17:55:15Z</time>
      </trkpt>
      <trkpt lat="49.34504" lon="0.36224">
        <ele>124.15</ele>
        <time>2021-07-29T17:55:16Z</time>
      </trkpt>
      <trkpt lat="49.34504" lon="0.36224">
        <ele>124.15</ele>
        <time>2021-07-29T17:55:17Z</time>
      </trkpt>
      <trkpt lat="49.34492" lon="0.36214">
        <ele>123.19</ele>
        <time>2021-07-29T17:55:18Z</time>
      </trkpt>
      <trkpt lat="49.34483" lon="0.36199">
        <ele>122.71</ele>
        <time>2021-07-29T17:55:19Z</time>
      </trkpt>
      <trkpt lat="49.34474" lon="0.36184">
        <ele>123.67</ele>
        <time>2021-07-29T17:55:20Z</time>
      </trkpt>
      <trkpt lat="49.34358" lon="0.36011">
        <ele>127.99</ele>
        <time>2021-07-29T17:55:33Z</time>
      </trkpt>
      <trkpt lat="49.34203" lon="0.35863">
        <ele>129.92</ele>
        <time>2021-07-29T17:55:48Z</time>
      </trkpt>
      <trkpt lat="49.34102" lon="0.35771">
        <ele>128.95</ele>
        <time>2021-07-29T17:56:00Z</time>
      </trkpt>
      <trkpt lat="49.34099" lon="0.35764">
        <ele>128.95</ele>
        <time>2021-07-29T17:56:01Z</time>
      </trkpt>
      <trkpt lat="49.34091" lon="0.35742">
        <ele>128.47</ele>
        <time>2021-07-29T17:56:04Z</time>
      </trkpt>
      <trkpt lat="49.34086" lon="0.35736">
        <ele>127.99</ele>
        <time>2021-07-29T17:56:05Z</time>
      </trkpt>
      <trkpt lat="49.34081" lon="0.35731">
        <ele>127.99</ele>
        <time>2021-07-29T17:56:06Z</time>
      </trkpt>
      <trkpt lat="49.34078" lon="0.35729">
        <ele>127.99</ele>
        <time>2021-07-29T17:56:07Z</time>
      </trkpt>
      <trkpt lat="49.34066" lon="0.35733">
        <ele>127.99</ele>
        <time>2021-07-29T17:56:08Z</time>
      </trkpt>
      <trkpt lat="49.34059" lon="0.35731">
        <ele>127.99</ele>
        <time>2021-07-29T17:56:09Z</time>
      </trkpt>
      <trkpt lat="49.34049" lon="0.35724">
        <ele>127.99</ele>
        <time>2021-07-29T17:56:10Z</time>
      </trkpt>
      <trkpt lat="49.34042" lon="0.35716">
        <ele>127.51</ele>
        <time>2021-07-29T17:56:11Z</time>
      </trkpt>
      <trkpt lat="49.34027" lon="0.35698">
        <ele>127.51</ele>
        <time>2021-07-29T17:56:12Z</time>
      </trkpt>
      <trkpt lat="49.3392" lon="0.35571">
        <ele>126.07</ele>
        <time>2021-07-29T17:56:23Z</time>
      </trkpt>
      <trkpt lat="49.33812" lon="0.3546">
        <ele>127.51</ele>
        <time>2021-07-29T17:56:34Z</time>
      </trkpt>
      <trkpt lat="49.33745" lon="0.35404">
        <ele>127.51</ele>
        <time>2021-07-29T17:56:41Z</time>
      </trkpt>
      <trkpt lat="49.33737" lon="0.35398">
        <ele>127.51</ele>
        <time>2021-07-29T17:56:42Z</time>
      </trkpt>
      <trkpt lat="49.33726" lon="0.3539">
        <ele>127.99</ele>
        <time>2021-07-29T17:56:43Z</time>
      </trkpt>
      <trkpt lat="49.33712" lon="0.35366">
        <ele>127.51</ele>
        <time>2021-07-29T17:56:46Z</time>
      </trkpt>
      <trkpt lat="49.33712" lon="0.35366">
        <ele>127.51</ele>
        <time>2021-07-29T17:56:47Z</time>
      </trkpt>
      <trkpt lat="49.33697" lon="0.35361">
        <ele>127.51</ele>
        <time>2021-07-29T17:56:49Z</time>
      </trkpt>
      <trkpt lat="49.33689" lon="0.35353">
        <ele>127.51</ele>
        <time>2021-07-29T17:56:50Z</time>
      </trkpt>
      <trkpt lat="49.336" lon="0.35276">
        <ele>125.59</ele>
        <time>2021-07-29T17:56:59Z</time>
      </trkpt>
      <trkpt lat="49.33439" lon="0.35153">
        <ele>126.55</ele>
        <time>2021-07-29T17:57:11Z</time>
      </trkpt>
      <trkpt lat="49.33357" lon="0.35046">
        <ele>124.15</ele>
        <time>2021-07-29T17:57:18Z</time>
      </trkpt>
      <trkpt lat="49.33246" lon="0.34788">
        <ele>126.55</ele>
        <time>2021-07-29T17:57:30Z</time>
      </trkpt>
      <trkpt lat="49.33132" lon="0.34402">
        <ele>129.43</ele>
        <time>2021-07-29T17:57:45Z</time>
      </trkpt>
      <trkpt lat="49.33098" lon="0.3434">
        <ele>130.4</ele>
        <time>2021-07-29T17:57:51Z</time>
      </trkpt>
      <trkpt lat="49.33095" lon="0.34334">
        <ele>130.4</ele>
        <time>2021-07-29T17:57:52Z</time>
      </trkpt>
      <trkpt lat="49.33092" lon="0.34329">
        <ele>130.88</ele>
        <time>2021-07-29T17:57:53Z</time>
      </trkpt>
      <trkpt lat="49.33095" lon="0.34306">
        <ele>130.88</ele>
        <time>2021-07-29T17:57:54Z</time>
      </trkpt>
      <trkpt lat="49.33092" lon="0.34286">
        <ele>130.88</ele>
        <time>2021-07-29T17:57:56Z</time>
      </trkpt>
      <trkpt lat="49.33092" lon="0.34286">
        <ele>130.88</ele>
        <time>2021-07-29T17:57:57Z</time>
      </trkpt>
      <trkpt lat="49.33087" lon="0.34279">
        <ele>131.36</ele>
        <time>2021-07-29T17:57:58Z</time>
      </trkpt>
      <trkpt lat="49.33082" lon="0.34272">
        <ele>131.36</ele>
        <time>2021-07-29T17:57:59Z</time>
      </trkpt>
      <trkpt lat="49.33077" lon="0.34273">
        <ele>131.36</ele>
        <time>2021-07-29T17:58:00Z</time>
      </trkpt>
      <trkpt lat="49.3307" lon="0.34275">
        <ele>131.84</ele>
        <time>2021-07-29T17:58:01Z</time>
      </trkpt>
      <trkpt lat="49.33057" lon="0.34263">
        <ele>131.36</ele>
        <time>2021-07-29T17:58:02Z</time>
      </trkpt>
      <trkpt lat="49.33052" lon="0.34252">
        <ele>131.36</ele>
        <time>2021-07-29T17:58:03Z</time>
      </trkpt>
      <trkpt lat="49.32986" lon="0.34125">
        <ele>129.43</ele>
        <time>2021-07-29T17:58:12Z</time>
      </trkpt>
      <trkpt lat="49.32872" lon="0.33904">
        <ele>128.95</ele>
        <time>2021-07-29T17:58:23Z</time>
      </trkpt>
      <trkpt lat="49.32719" lon="0.33597">
        <ele>127.99</ele>
        <time>2021-07-29T17:58:36Z</time>
      </trkpt>
      <trkpt lat="49.32638" lon="0.33323">
        <ele>126.55</ele>
        <time>2021-07-29T17:58:46Z</time>
      </trkpt>
      <trkpt lat="49.32599" lon="0.33031">
        <ele>127.99</ele>
        <time>2021-07-29T17:58:56Z</time>
      </trkpt>
      <trkpt lat="49.32611" lon="0.32732">
        <ele>129.92</ele>
        <time>2021-07-29T17:59:06Z</time>
      </trkpt>
      <trkpt lat="49.32661" lon="0.32466">
        <ele>129.92</ele>
        <time>2021-07-29T17:59:15Z</time>
      </trkpt>
      <trkpt lat="49.32784" lon="0.32118">
        <ele>131.84</ele>
        <time>2021-07-29T17:59:28Z</time>
      </trkpt>
      <trkpt lat="49.3298" lon="0.31603">
        <ele>129.43</ele>
        <time>2021-07-29T17:59:47Z</time>
      </trkpt>
      <trkpt lat="49.33076" lon="0.31407">
        <ele>131.84</ele>
        <time>2021-07-29T17:59:56Z</time>
      </trkpt>
      <trkpt lat="49.33124" lon="0.31339">
        <ele>133.28</ele>
        <time>2021-07-29T18:00:01Z</time>
      </trkpt>
      <trkpt lat="49.33124" lon="0.31339">
        <ele>133.28</ele>
        <time>2021-07-29T18:00:02Z</time>
      </trkpt>
      <trkpt lat="49.33131" lon="0.31335">
        <ele>133.28</ele>
        <time>2021-07-29T18:00:03Z</time>
      </trkpt>
      <trkpt lat="49.33146" lon="0.31331">
        <ele>133.28</ele>
        <time>2021-07-29T18:00:05Z</time>
      </trkpt>
      <trkpt lat="49.33152" lon="0.31326">
        <ele>133.76</ele>
        <time>2021-07-29T18:00:06Z</time>
      </trkpt>
      <trkpt lat="49.33159" lon="0.3132">
        <ele>133.76</ele>
        <time>2021-07-29T18:00:07Z</time>
      </trkpt>
      <trkpt lat="49.33162" lon="0.31312">
        <ele>133.28</ele>
        <time>2021-07-29T18:00:08Z</time>
      </trkpt>
      <trkpt lat="49.33163" lon="0.31302">
        <ele>133.28</ele>
        <time>2021-07-29T18:00:09Z</time>
      </trkpt>
      <trkpt lat="49.33164" lon="0.31292">
        <ele>133.28</ele>
        <time>2021-07-29T18:00:10Z</time>
      </trkpt>
      <trkpt lat="49.33162" lon="0.31288">
        <ele>133.28</ele>
        <time>2021-07-29T18:00:11Z</time>
      </trkpt>
      <trkpt lat="49.33157" lon="0.3128">
        <ele>133.76</ele>
        <time>2021-07-29T18:00:12Z</time>
      </trkpt>
      <trkpt lat="49.33149" lon="0.31271">
        <ele>133.76</ele>
        <time>2021-07-29T18:00:13Z</time>
      </trkpt>
      <trkpt lat="49.33149" lon="0.31271">
        <ele>133.28</ele>
        <time>2021-07-29T18:00:14Z</time>
      </trkpt>
      <trkpt lat="49.3314" lon="0.31264">
        <ele>133.28</ele>
        <time>2021-07-29T18:00:15Z</time>
      </trkpt>
      <trkpt lat="49.33134" lon="0.31255">
        <ele>133.28</ele>
        <time>2021-07-29T18:00:16Z</time>
      </trkpt>
      <trkpt lat="49.33128" lon="0.31245">
        <ele>132.8</ele>
        <time>2021-07-29T18:00:17Z</time>
      </trkpt>
      <trkpt lat="49.33123" lon="0.31228">
        <ele>132.8</ele>
        <time>2021-07-29T18:00:18Z</time>
      </trkpt>
      <trkpt lat="49.33074" lon="0.31052">
        <ele>132.32</ele>
        <time>2021-07-29T18:00:29Z</time>
      </trkpt>
      <trkpt lat="49.32998" lon="0.30781">
        <ele>130.4</ele>
        <time>2021-07-29T18:00:41Z</time>
      </trkpt>
      <trkpt lat="49.32883" lon="0.30371">
        <ele>135.2</ele>
        <time>2021-07-29T18:00:59Z</time>
      </trkpt>
      <trkpt lat="49.32747" lon="0.29883">
        <ele>135.68</ele>
        <time>2021-07-29T18:01:17Z</time>
      </trkpt>
      <trkpt lat="49.32702" lon="0.29636">
        <ele>138.57</ele>
        <time>2021-07-29T18:01:26Z</time>
      </trkpt>
      <trkpt lat="49.32644" lon="0.29311">
        <ele>144.34</ele>
        <time>2021-07-29T18:01:38Z</time>
      </trkpt>
      <trkpt lat="49.32536" lon="0.29033">
        <ele>143.37</ele>
        <time>2021-07-29T18:01:49Z</time>
      </trkpt>
      <trkpt lat="49.32427" lon="0.28734">
        <ele>139.53</ele>
        <time>2021-07-29T18:02:00Z</time>
      </trkpt>
      <trkpt lat="49.32297" lon="0.28267">
        <ele>145.3</ele>
        <time>2021-07-29T18:02:17Z</time>
      </trkpt>
      <trkpt lat="49.3214" lon="0.27706">
        <ele>148.66</ele>
        <time>2021-07-29T18:02:39Z</time>
      </trkpt>
      <trkpt lat="49.3202" lon="0.27278">
        <ele>146.26</ele>
        <time>2021-07-29T18:02:54Z</time>
      </trkpt>
      <trkpt lat="49.31961" lon="0.27068">
        <ele>142.89</ele>
        <time>2021-07-29T18:03:04Z</time>
      </trkpt>
      <trkpt lat="49.31885" lon="0.26821">
        <ele>133.76</ele>
        <time>2021-07-29T18:03:18Z</time>
      </trkpt>
      <trkpt lat="49.31791" lon="0.26692">
        <ele>129.43</ele>
        <time>2021-07-29T18:03:27Z</time>
      </trkpt>
      <trkpt lat="49.31719" lon="0.26559">
        <ele>125.11</ele>
        <time>2021-07-29T18:03:36Z</time>
      </trkpt>
      <trkpt lat="49.31579" lon="0.26227">
        <ele>110.21</ele>
        <time>2021-07-29T18:03:52Z</time>
      </trkpt>
      <trkpt lat="49.31567" lon="0.2621">
        <ele>109.73</ele>
        <time>2021-07-29T18:03:53Z</time>
      </trkpt>
      <trkpt lat="49.31553" lon="0.26193">
        <ele>109.73</ele>
        <time>2021-07-29T18:03:54Z</time>
      </trkpt>
      <trkpt lat="49.31537" lon="0.26176">
        <ele>110.69</ele>
        <time>2021-07-29T18:03:55Z</time>
      </trkpt>
      <trkpt lat="49.3152" lon="0.26168">
        <ele>110.69</ele>
        <time>2021-07-29T18:03:56Z</time>
      </trkpt>
      <trkpt lat="49.31504" lon="0.2616">
        <ele>109.73</ele>
        <time>2021-07-29T18:03:57Z</time>
      </trkpt>
      <trkpt lat="49.31486" lon="0.26151">
        <ele>108.77</ele>
        <time>2021-07-29T18:03:58Z</time>
      </trkpt>
      <trkpt lat="49.31468" lon="0.26145">
        <ele>107.81</ele>
        <time>2021-07-29T18:03:59Z</time>
      </trkpt>
      <trkpt lat="49.3123" lon="0.26071">
        <ele>86.66</ele>
        <time>2021-07-29T18:04:12Z</time>
      </trkpt>
      <trkpt lat="49.31099" lon="0.25952">
        <ele>78.48</ele>
        <time>2021-07-29T18:04:20Z</time>
      </trkpt>
      <trkpt lat="49.31083" lon="0.25942">
        <ele>78.48</ele>
        <time>2021-07-29T18:04:21Z</time>
      </trkpt>
      <trkpt lat="49.31066" lon="0.25936">
        <ele>78</ele>
        <time>2021-07-29T18:04:22Z</time>
      </trkpt>
      <trkpt lat="49.31047" lon="0.25928">
        <ele>78</ele>
        <time>2021-07-29T18:04:23Z</time>
      </trkpt>
      <trkpt lat="49.31029" lon="0.25922">
        <ele>76.56</ele>
        <time>2021-07-29T18:04:24Z</time>
      </trkpt>
      <trkpt lat="49.30727" lon="0.25869">
        <ele>56.37</ele>
        <time>2021-07-29T18:04:39Z</time>
      </trkpt>
      <trkpt lat="49.3056" lon="0.25761">
        <ele>48.2</ele>
        <time>2021-07-29T18:04:47Z</time>
      </trkpt>
      <trkpt lat="49.30502" lon="0.25697">
        <ele>41.95</ele>
        <time>2021-07-29T18:04:52Z</time>
      </trkpt>
      <trkpt lat="49.30491" lon="0.25682">
        <ele>40.03</ele>
        <time>2021-07-29T18:04:53Z</time>
      </trkpt>
      <trkpt lat="49.3048" lon="0.25661">
        <ele>39.55</ele>
        <time>2021-07-29T18:04:54Z</time>
      </trkpt>
      <trkpt lat="49.3047" lon="0.2564">
        <ele>38.11</ele>
        <time>2021-07-29T18:04:55Z</time>
      </trkpt>
      <trkpt lat="49.30462" lon="0.25616">
        <ele>37.15</ele>
        <time>2021-07-29T18:04:56Z</time>
      </trkpt>
      <trkpt lat="49.30454" lon="0.25592">
        <ele>36.19</ele>
        <time>2021-07-29T18:04:57Z</time>
      </trkpt>
      <trkpt lat="49.3039" lon="0.25287">
        <ele>30.42</ele>
        <time>2021-07-29T18:05:07Z</time>
      </trkpt>
      <trkpt lat="49.30289" lon="0.24753">
        <ele>30.42</ele>
        <time>2021-07-29T18:05:27Z</time>
      </trkpt>
      <trkpt lat="49.30222" lon="0.24329">
        <ele>27.05</ele>
        <time>2021-07-29T18:05:41Z</time>
      </trkpt>
      <trkpt lat="49.3016" lon="0.2394">
        <ele>28.98</ele>
        <time>2021-07-29T18:05:56Z</time>
      </trkpt>
      <trkpt lat="49.30094" lon="0.23526">
        <ele>33.78</ele>
        <time>2021-07-29T18:06:12Z</time>
      </trkpt>
      <trkpt lat="49.30016" lon="0.2304">
        <ele>28.02</ele>
        <time>2021-07-29T18:06:30Z</time>
      </trkpt>
      <trkpt lat="49.2995" lon="0.22633">
        <ele>29.46</ele>
        <time>2021-07-29T18:06:45Z</time>
      </trkpt>
      <trkpt lat="49.2987" lon="0.22135">
        <ele>29.94</ele>
        <time>2021-07-29T18:07:03Z</time>
      </trkpt>
      <trkpt lat="49.29847" lon="0.21908">
        <ele>31.86</ele>
        <time>2021-07-29T18:07:13Z</time>
      </trkpt>
      <trkpt lat="49.29835" lon="0.21761">
        <ele>32.34</ele>
        <time>2021-07-29T18:07:22Z</time>
      </trkpt>
      <trkpt lat="49.29827" lon="0.21675">
        <ele>30.9</ele>
        <time>2021-07-29T18:07:30Z</time>
      </trkpt>
      <trkpt lat="49.29817" lon="0.21576">
        <ele>27.53</ele>
        <time>2021-07-29T18:07:42Z</time>
      </trkpt>
      <trkpt lat="49.29809" lon="0.21494">
        <ele>25.61</ele>
        <time>2021-07-29T18:07:50Z</time>
      </trkpt>
      <trkpt lat="49.29788" lon="0.21272">
        <ele>23.21</ele>
        <time>2021-07-29T18:08:01Z</time>
      </trkpt>
      <trkpt lat="49.29758" lon="0.20949">
        <ele>25.13</ele>
        <time>2021-07-29T18:08:17Z</time>
      </trkpt>
      <trkpt lat="49.29708" lon="0.20556">
        <ele>20.32</ele>
        <time>2021-07-29T18:08:34Z</time>
      </trkpt>
      <trkpt lat="49.2962" lon="0.20257">
        <ele>18.88</ele>
        <time>2021-07-29T18:08:47Z</time>
      </trkpt>
      <trkpt lat="49.29507" lon="0.19923">
        <ele>16.48</ele>
        <time>2021-07-29T18:09:04Z</time>
      </trkpt>
      <trkpt lat="49.29493" lon="0.19886">
        <ele>16</ele>
        <time>2021-07-29T18:09:07Z</time>
      </trkpt>
      <trkpt lat="49.29489" lon="0.19876">
        <ele>16</ele>
        <time>2021-07-29T18:09:08Z</time>
      </trkpt>
      <trkpt lat="49.29473" lon="0.1984">
        <ele>16</ele>
        <time>2021-07-29T18:09:10Z</time>
      </trkpt>
      <trkpt lat="49.29444" lon="0.19724">
        <ele>14.56</ele>
        <time>2021-07-29T18:09:20Z</time>
      </trkpt>
      <trkpt lat="49.29429" lon="0.19692">
        <ele>13.6</ele>
        <time>2021-07-29T18:09:23Z</time>
      </trkpt>
      <trkpt lat="49.29425" lon="0.19684">
        <ele>13.6</ele>
        <time>2021-07-29T18:09:24Z</time>
      </trkpt>
      <trkpt lat="49.2941" lon="0.19635">
        <ele>12.15</ele>
        <time>2021-07-29T18:09:29Z</time>
      </trkpt>
      <trkpt lat="49.29408" lon="0.19624">
        <ele>12.15</ele>
        <time>2021-07-29T18:09:30Z</time>
      </trkpt>
      <trkpt lat="49.29397" lon="0.19588">
        <ele>13.12</ele>
        <time>2021-07-29T18:09:33Z</time>
      </trkpt>
      <trkpt lat="49.29393" lon="0.19575">
        <ele>12.15</ele>
        <time>2021-07-29T18:09:34Z</time>
      </trkpt>
      <trkpt lat="49.29319" lon="0.19437">
        <ele>11.67</ele>
        <time>2021-07-29T18:09:44Z</time>
      </trkpt>
      <trkpt lat="49.29219" lon="0.1932">
        <ele>9.75</ele>
        <time>2021-07-29T18:09:55Z</time>
      </trkpt>
      <trkpt lat="49.29169" lon="0.19264">
        <ele>9.75</ele>
        <time>2021-07-29T18:10:01Z</time>
      </trkpt>
      <trkpt lat="49.29096" lon="0.19182">
        <ele>10.71</ele>
        <time>2021-07-29T18:10:14Z</time>
      </trkpt>
      <trkpt lat="49.29042" lon="0.19119">
        <ele>10.23</ele>
        <time>2021-07-29T18:10:25Z</time>
      </trkpt>
      <trkpt lat="49.29038" lon="0.19115">
        <ele>10.71</ele>
        <time>2021-07-29T18:10:38Z</time>
      </trkpt>
      <trkpt lat="49.29031" lon="0.19093">
        <ele>10.71</ele>
        <time>2021-07-29T18:10:41Z</time>
      </trkpt>
      <trkpt lat="49.29031" lon="0.19093">
        <ele>10.23</ele>
        <time>2021-07-29T18:10:42Z</time>
      </trkpt>
      <trkpt lat="49.28968" lon="0.19037">
        <ele>10.23</ele>
        <time>2021-07-29T18:10:54Z</time>
      </trkpt>
      <trkpt lat="49.28925" lon="0.18985">
        <ele>10.23</ele>
        <time>2021-07-29T18:11:04Z</time>
      </trkpt>
      <trkpt lat="49.2891" lon="0.18967">
        <ele>9.75</ele>
        <time>2021-07-29T18:11:13Z</time>
      </trkpt>
      <trkpt lat="49.289" lon="0.18955">
        <ele>8.79</ele>
        <time>2021-07-29T18:11:29Z</time>
      </trkpt>
      <trkpt lat="49.28893" lon="0.18946">
        <ele>8.31</ele>
        <time>2021-07-29T18:12:02Z</time>
      </trkpt>
      <trkpt lat="49.28893" lon="0.18946">
        <ele>8.79</ele>
        <time>2021-07-29T18:12:21Z</time>
      </trkpt>
      <trkpt lat="49.28879" lon="0.1893">
        <ele>9.27</ele>
        <time>2021-07-29T18:12:42Z</time>
      </trkpt>
      <trkpt lat="49.28875" lon="0.18927">
        <ele>9.27</ele>
        <time>2021-07-29T18:12:58Z</time>
      </trkpt>
      <trkpt lat="49.28862" lon="0.18913">
        <ele>9.27</ele>
        <time>2021-07-29T18:13:11Z</time>
      </trkpt>
      <trkpt lat="49.28851" lon="0.189">
        <ele>9.27</ele>
        <time>2021-07-29T18:13:33Z</time>
      </trkpt>
      <trkpt lat="49.28838" lon="0.18885">
        <ele>9.75</ele>
        <time>2021-07-29T18:13:49Z</time>
      </trkpt>
      <trkpt lat="49.28832" lon="0.18877">
        <ele>9.75</ele>
        <time>2021-07-29T18:14:01Z</time>
      </trkpt>
      <trkpt lat="49.28819" lon="0.18862">
        <ele>9.75</ele>
        <time>2021-07-29T18:14:15Z</time>
      </trkpt>
      <trkpt lat="49.28804" lon="0.18844">
        <ele>9.75</ele>
        <time>2021-07-29T18:14:34Z</time>
      </trkpt>
      <trkpt lat="49.28784" lon="0.18824">
        <ele>10.23</ele>
        <time>2021-07-29T18:14:46Z</time>
      </trkpt>
      <trkpt lat="49.28756" lon="0.18791">
        <ele>10.23</ele>
        <time>2021-07-29T18:15:02Z</time>
      </trkpt>
      <trkpt lat="49.28751" lon="0.18785">
        <ele>10.23</ele>
        <time>2021-07-29T18:15:18Z</time>
      </trkpt>
      <trkpt lat="49.28708" lon="0.18737">
        <ele>8.79</ele>
        <time>2021-07-29T18:15:36Z</time>
      </trkpt>
      <trkpt lat="49.28701" lon="0.18725">
        <ele>9.27</ele>
        <time>2021-07-29T18:15:49Z</time>
      </trkpt>
      <trkpt lat="49.28685" lon="0.18699">
        <ele>9.75</ele>
        <time>2021-07-29T18:16:01Z</time>
      </trkpt>
      <trkpt lat="49.28659" lon="0.1866">
        <ele>10.23</ele>
        <time>2021-07-29T18:16:13Z</time>
      </trkpt>
      <trkpt lat="49.28654" lon="0.18651">
        <ele>10.23</ele>
        <time>2021-07-29T18:16:44Z</time>
      </trkpt>
      <trkpt lat="49.28647" lon="0.18637">
        <ele>9.75</ele>
        <time>2021-07-29T18:16:55Z</time>
      </trkpt>
      <trkpt lat="49.28636" lon="0.186">
        <ele>9.75</ele>
        <time>2021-07-29T18:17:08Z</time>
      </trkpt>
      <trkpt lat="49.28617" lon="0.18549">
        <ele>8.79</ele>
        <time>2021-07-29T18:17:18Z</time>
      </trkpt>
      <trkpt lat="49.28575" lon="0.18455">
        <ele>9.75</ele>
        <time>2021-07-29T18:17:32Z</time>
      </trkpt>
      <trkpt lat="49.28526" lon="0.18352">
        <ele>8.31</ele>
        <time>2021-07-29T18:17:47Z</time>
      </trkpt>
      <trkpt lat="49.28523" lon="0.18346">
        <ele>7.83</ele>
        <time>2021-07-29T18:17:48Z</time>
      </trkpt>
      <trkpt lat="49.28495" lon="0.18289">
        <ele>7.83</ele>
        <time>2021-07-29T18:18:01Z</time>
      </trkpt>
      <trkpt lat="49.28473" lon="0.18243">
        <ele>6.87</ele>
        <time>2021-07-29T18:18:09Z</time>
      </trkpt>
      <trkpt lat="49.28451" lon="0.18204">
        <ele>6.39</ele>
        <time>2021-07-29T18:18:14Z</time>
      </trkpt>
      <trkpt lat="49.28392" lon="0.18123">
        <ele>9.27</ele>
        <time>2021-07-29T18:18:27Z</time>
      </trkpt>
      <trkpt lat="49.28354" lon="0.18089">
        <ele>9.75</ele>
        <time>2021-07-29T18:18:38Z</time>
      </trkpt>
      <trkpt lat="49.28354" lon="0.18089">
        <ele>10.71</ele>
        <time>2021-07-29T18:19:03Z</time>
      </trkpt>
      <trkpt lat="49.28322" lon="0.18059">
        <ele>11.19</ele>
        <time>2021-07-29T18:19:11Z</time>
      </trkpt>
      <trkpt lat="49.28246" lon="0.17983">
        <ele>12.63</ele>
        <time>2021-07-29T18:19:21Z</time>
      </trkpt>
      <trkpt lat="49.28087" lon="0.17794">
        <ele>28.5</ele>
        <time>2021-07-29T18:19:38Z</time>
      </trkpt>
      <trkpt lat="49.27928" lon="0.17603">
        <ele>40.51</ele>
        <time>2021-07-29T18:19:54Z</time>
      </trkpt>
      <trkpt lat="49.27873" lon="0.17535">
        <ele>42.92</ele>
        <time>2021-07-29T18:20:01Z</time>
      </trkpt>
      <trkpt lat="49.27868" lon="0.17528">
        <ele>42.92</ele>
        <time>2021-07-29T18:20:02Z</time>
      </trkpt>
      <trkpt lat="49.27864" lon="0.17505">
        <ele>43.4</ele>
        <time>2021-07-29T18:20:04Z</time>
      </trkpt>
      <trkpt lat="49.27861" lon="0.17495">
        <ele>43.88</ele>
        <time>2021-07-29T18:20:05Z</time>
      </trkpt>
      <trkpt lat="49.27853" lon="0.1749">
        <ele>43.88</ele>
        <time>2021-07-29T18:20:06Z</time>
      </trkpt>
      <trkpt lat="49.27842" lon="0.1749">
        <ele>43.88</ele>
        <time>2021-07-29T18:20:08Z</time>
      </trkpt>
      <trkpt lat="49.27828" lon="0.17487">
        <ele>43.88</ele>
        <time>2021-07-29T18:20:09Z</time>
      </trkpt>
      <trkpt lat="49.27815" lon="0.17469">
        <ele>44.36</ele>
        <time>2021-07-29T18:20:10Z</time>
      </trkpt>
      <trkpt lat="49.2773" lon="0.17364">
        <ele>48.68</ele>
        <time>2021-07-29T18:20:21Z</time>
      </trkpt>
      <trkpt lat="49.27616" lon="0.17227">
        <ele>53.97</ele>
        <time>2021-07-29T18:20:31Z</time>
      </trkpt>
      <trkpt lat="49.27441" lon="0.17014">
        <ele>55.89</ele>
        <time>2021-07-29T18:20:44Z</time>
      </trkpt>
      <trkpt lat="49.27167" lon="0.16698">
        <ele>70.79</ele>
        <time>2021-07-29T18:21:01Z</time>
      </trkpt>
      <trkpt lat="49.27043" lon="0.166">
        <ele>73.68</ele>
        <time>2021-07-29T18:21:08Z</time>
      </trkpt>
      <trkpt lat="49.27028" lon="0.16582">
        <ele>73.2</ele>
        <time>2021-07-29T18:21:09Z</time>
      </trkpt>
      <trkpt lat="49.26871" lon="0.16354">
        <ele>86.66</ele>
        <time>2021-07-29T18:21:19Z</time>
      </trkpt>
      <trkpt lat="49.26647" lon="0.16006">
        <ele>108.77</ele>
        <time>2021-07-29T18:21:37Z</time>
      </trkpt>
      <trkpt lat="49.26612" lon="0.15946">
        <ele>111.17</ele>
        <time>2021-07-29T18:21:40Z</time>
      </trkpt>
      <trkpt lat="49.26605" lon="0.15929">
        <ele>111.17</ele>
        <time>2021-07-29T18:21:41Z</time>
      </trkpt>
      <trkpt lat="49.26598" lon="0.1591">
        <ele>112.13</ele>
        <time>2021-07-29T18:21:42Z</time>
      </trkpt>
      <trkpt lat="49.26592" lon="0.15885">
        <ele>112.61</ele>
        <time>2021-07-29T18:21:43Z</time>
      </trkpt>
      <trkpt lat="49.26586" lon="0.15862">
        <ele>112.61</ele>
        <time>2021-07-29T18:21:44Z</time>
      </trkpt>
      <trkpt lat="49.26578" lon="0.15813">
        <ele>111.17</ele>
        <time>2021-07-29T18:21:45Z</time>
      </trkpt>
      <trkpt lat="49.26551" lon="0.15577">
        <ele>110.69</ele>
        <time>2021-07-29T18:21:54Z</time>
      </trkpt>
      <trkpt lat="49.26476" lon="0.14866">
        <ele>118.38</ele>
        <time>2021-07-29T18:22:15Z</time>
      </trkpt>
      <trkpt lat="49.26401" lon="0.14159">
        <ele>118.86</ele>
        <time>2021-07-29T18:22:37Z</time>
      </trkpt>
      <trkpt lat="49.26324" lon="0.13415">
        <ele>120.3</ele>
        <time>2021-07-29T18:22:59Z</time>
      </trkpt>
      <trkpt lat="49.26249" lon="0.12696">
        <ele>121.74</ele>
        <time>2021-07-29T18:23:21Z</time>
      </trkpt>
      <trkpt lat="49.26164" lon="0.11873">
        <ele>121.26</ele>
        <time>2021-07-29T18:23:46Z</time>
      </trkpt>
      <trkpt lat="49.26104" lon="0.11259">
        <ele>127.03</ele>
        <time>2021-07-29T18:24:06Z</time>
      </trkpt>
      <trkpt lat="49.26068" lon="0.10958">
        <ele>127.03</ele>
        <time>2021-07-29T18:24:17Z</time>
      </trkpt>
      <trkpt lat="49.26064" lon="0.10939">
        <ele>127.03</ele>
        <time>2021-07-29T18:24:18Z</time>
      </trkpt>
      <trkpt lat="49.26048" lon="0.10879">
        <ele>128.47</ele>
        <time>2021-07-29T18:24:22Z</time>
      </trkpt>
      <trkpt lat="49.26045" lon="0.10867">
        <ele>128.95</ele>
        <time>2021-07-29T18:24:23Z</time>
      </trkpt>
      <trkpt lat="49.26048" lon="0.1084">
        <ele>128.95</ele>
        <time>2021-07-29T18:24:25Z</time>
      </trkpt>
      <trkpt lat="49.26047" lon="0.10828">
        <ele>128.95</ele>
        <time>2021-07-29T18:24:26Z</time>
      </trkpt>
      <trkpt lat="49.26041" lon="0.10818">
        <ele>129.43</ele>
        <time>2021-07-29T18:24:27Z</time>
      </trkpt>
      <trkpt lat="49.26036" lon="0.10809">
        <ele>129.43</ele>
        <time>2021-07-29T18:24:28Z</time>
      </trkpt>
      <trkpt lat="49.26034" lon="0.10792">
        <ele>129.43</ele>
        <time>2021-07-29T18:24:29Z</time>
      </trkpt>
      <trkpt lat="49.26034" lon="0.10763">
        <ele>130.4</ele>
        <time>2021-07-29T18:24:30Z</time>
      </trkpt>
      <trkpt lat="49.26034" lon="0.10747">
        <ele>129.43</ele>
        <time>2021-07-29T18:24:31Z</time>
      </trkpt>
      <trkpt lat="49.26034" lon="0.10747">
        <ele>128.95</ele>
        <time>2021-07-29T18:24:32Z</time>
      </trkpt>
      <trkpt lat="49.2604" lon="0.10656">
        <ele>127.99</ele>
        <time>2021-07-29T18:24:37Z</time>
      </trkpt>
      <trkpt lat="49.26014" lon="0.10405">
        <ele>128.47</ele>
        <time>2021-07-29T18:24:48Z</time>
      </trkpt>
      <trkpt lat="49.25972" lon="0.10013">
        <ele>130.4</ele>
        <time>2021-07-29T18:25:02Z</time>
      </trkpt>
      <trkpt lat="49.25909" lon="0.09434">
        <ele>136.64</ele>
        <time>2021-07-29T18:25:22Z</time>
      </trkpt>
      <trkpt lat="49.25843" lon="0.08956">
        <ele>131.84</ele>
        <time>2021-07-29T18:25:37Z</time>
      </trkpt>
      <trkpt lat="49.25793" lon="0.085">
        <ele>133.76</ele>
        <time>2021-07-29T18:25:51Z</time>
      </trkpt>
      <trkpt lat="49.25736" lon="0.07904">
        <ele>131.36</ele>
        <time>2021-07-29T18:26:10Z</time>
      </trkpt>
      <trkpt lat="49.25684" lon="0.07355">
        <ele>131.84</ele>
        <time>2021-07-29T18:26:27Z</time>
      </trkpt>
      <trkpt lat="49.25606" lon="0.06548">
        <ele>139.05</ele>
        <time>2021-07-29T18:26:52Z</time>
      </trkpt>
      <trkpt lat="49.25545" lon="0.05927">
        <ele>139.53</ele>
        <time>2021-07-29T18:27:12Z</time>
      </trkpt>
      <trkpt lat="49.25523" lon="0.05685">
        <ele>138.09</ele>
        <time>2021-07-29T18:27:22Z</time>
      </trkpt>
      <trkpt lat="49.25517" lon="0.0561">
        <ele>137.61</ele>
        <time>2021-07-29T18:27:27Z</time>
      </trkpt>
      <trkpt lat="49.25517" lon="0.056">
        <ele>137.61</ele>
        <time>2021-07-29T18:27:28Z</time>
      </trkpt>
      <trkpt lat="49.25522" lon="0.05588">
        <ele>137.61</ele>
        <time>2021-07-29T18:27:29Z</time>
      </trkpt>
      <trkpt lat="49.25522" lon="0.05588">
        <ele>137.61</ele>
        <time>2021-07-29T18:27:30Z</time>
      </trkpt>
      <trkpt lat="49.25525" lon="0.05574">
        <ele>137.13</ele>
        <time>2021-07-29T18:27:31Z</time>
      </trkpt>
      <trkpt lat="49.25525" lon="0.05568">
        <ele>136.64</ele>
        <time>2021-07-29T18:27:32Z</time>
      </trkpt>
      <trkpt lat="49.25514" lon="0.05547">
        <ele>136.64</ele>
        <time>2021-07-29T18:27:33Z</time>
      </trkpt>
      <trkpt lat="49.25514" lon="0.05547">
        <ele>136.64</ele>
        <time>2021-07-29T18:27:34Z</time>
      </trkpt>
      <trkpt lat="49.25513" lon="0.05536">
        <ele>136.64</ele>
        <time>2021-07-29T18:27:35Z</time>
      </trkpt>
      <trkpt lat="49.25511" lon="0.05522">
        <ele>136.64</ele>
        <time>2021-07-29T18:27:36Z</time>
      </trkpt>
      <trkpt lat="49.25508" lon="0.05508">
        <ele>137.13</ele>
        <time>2021-07-29T18:27:37Z</time>
      </trkpt>
      <trkpt lat="49.25487" lon="0.05308">
        <ele>132.8</ele>
        <time>2021-07-29T18:27:47Z</time>
      </trkpt>
      <trkpt lat="49.25446" lon="0.04942">
        <ele>127.03</ele>
        <time>2021-07-29T18:28:01Z</time>
      </trkpt>
      <trkpt lat="49.25396" lon="0.04725">
        <ele>124.15</ele>
        <time>2021-07-29T18:28:09Z</time>
      </trkpt>
      <trkpt lat="49.25247" lon="0.04233">
        <ele>117.9</ele>
        <time>2021-07-29T18:28:27Z</time>
      </trkpt>
      <trkpt lat="49.25141" lon="0.03943">
        <ele>109.25</ele>
        <time>2021-07-29T18:28:38Z</time>
      </trkpt>
      <trkpt lat="49.25129" lon="0.03881">
        <ele>107.32</ele>
        <time>2021-07-29T18:28:39Z</time>
      </trkpt>
      <trkpt lat="49.25105" lon="0.03565">
        <ele>91.46</ele>
        <time>2021-07-29T18:28:50Z</time>
      </trkpt>
      <trkpt lat="49.25037" lon="0.03287">
        <ele>80.41</ele>
        <time>2021-07-29T18:28:58Z</time>
      </trkpt>
      <trkpt lat="49.24994" lon="0.03131">
        <ele>73.68</ele>
        <time>2021-07-29T18:29:05Z</time>
      </trkpt>
      <trkpt lat="49.24992" lon="0.03107">
        <ele>73.2</ele>
        <time>2021-07-29T18:29:06Z</time>
      </trkpt>
      <trkpt lat="49.24991" lon="0.03081">
        <ele>72.24</ele>
        <time>2021-07-29T18:29:07Z</time>
      </trkpt>
      <trkpt lat="49.24991" lon="0.03056">
        <ele>71.27</ele>
        <time>2021-07-29T18:29:08Z</time>
      </trkpt>
      <trkpt lat="49.24994" lon="0.03031">
        <ele>70.79</ele>
        <time>2021-07-29T18:29:09Z</time>
      </trkpt>
      <trkpt lat="49.25035" lon="0.02711">
        <ele>57.82</ele>
        <time>2021-07-29T18:29:20Z</time>
      </trkpt>
      <trkpt lat="49.25037" lon="0.02656">
        <ele>57.34</ele>
        <time>2021-07-29T18:29:21Z</time>
      </trkpt>
      <trkpt lat="49.25037" lon="0.02656">
        <ele>56.86</ele>
        <time>2021-07-29T18:29:22Z</time>
      </trkpt>
      <trkpt lat="49.25019" lon="0.0241">
        <ele>51.09</ele>
        <time>2021-07-29T18:29:32Z</time>
      </trkpt>
      <trkpt lat="49.24997" lon="0.02107">
        <ele>48.68</ele>
        <time>2021-07-29T18:29:47Z</time>
      </trkpt>
      <trkpt lat="49.24976" lon="0.01823">
        <ele>46.28</ele>
        <time>2021-07-29T18:30:02Z</time>
      </trkpt>
      <trkpt lat="49.24948" lon="0.0142">
        <ele>41.95</ele>
        <time>2021-07-29T18:30:21Z</time>
      </trkpt>
      <trkpt lat="49.24927" lon="0.0113">
        <ele>44.36</ele>
        <time>2021-07-29T18:30:32Z</time>
      </trkpt>
      <trkpt lat="49.24899" lon="0.00749">
        <ele>44.84</ele>
        <time>2021-07-29T18:30:44Z</time>
      </trkpt>
      <trkpt lat="49.2488" lon="0.00389">
        <ele>41.47</ele>
        <time>2021-07-29T18:30:55Z</time>
      </trkpt>
      <trkpt lat="49.24902" lon="0.00083">
        <ele>37.63</ele>
        <time>2021-07-29T18:31:04Z</time>
      </trkpt>
      <trkpt lat="49.24905" lon="-0.00142">
        <ele>33.78</ele>
        <time>2021-07-29T18:31:11Z</time>
      </trkpt>
      <trkpt lat="49.24867" lon="-0.003">
        <ele>33.78</ele>
        <time>2021-07-29T18:31:17Z</time>
      </trkpt>
      <trkpt lat="49.24794" lon="-0.00431">
        <ele>34.74</ele>
        <time>2021-07-29T18:31:25Z</time>
      </trkpt>
      <trkpt lat="49.24677" lon="-0.00533">
        <ele>34.26</ele>
        <time>2021-07-29T18:31:35Z</time>
      </trkpt>
      <trkpt lat="49.24593" lon="-0.00635">
        <ele>33.3</ele>
        <time>2021-07-29T18:31:43Z</time>
      </trkpt>
      <trkpt lat="49.24504" lon="-0.00874">
        <ele>30.42</ele>
        <time>2021-07-29T18:31:54Z</time>
      </trkpt>
      <trkpt lat="49.2435" lon="-0.01311">
        <ele>30.9</ele>
        <time>2021-07-29T18:32:14Z</time>
      </trkpt>
      <trkpt lat="49.24266" lon="-0.0155">
        <ele>32.34</ele>
        <time>2021-07-29T18:32:23Z</time>
      </trkpt>
      <trkpt lat="49.24146" lon="-0.01896">
        <ele>30.42</ele>
        <time>2021-07-29T18:32:35Z</time>
      </trkpt>
      <trkpt lat="49.23974" lon="-0.02389">
        <ele>29.46</ele>
        <time>2021-07-29T18:32:53Z</time>
      </trkpt>
      <trkpt lat="49.23856" lon="-0.02723">
        <ele>34.26</ele>
        <time>2021-07-29T18:33:05Z</time>
      </trkpt>
      <trkpt lat="49.23776" lon="-0.02954">
        <ele>38.11</ele>
        <time>2021-07-29T18:33:17Z</time>
      </trkpt>
      <trkpt lat="49.23666" lon="-0.03263">
        <ele>38.11</ele>
        <time>2021-07-29T18:33:32Z</time>
      </trkpt>
      <trkpt lat="49.23564" lon="-0.03473">
        <ele>24.65</ele>
        <time>2021-07-29T18:33:43Z</time>
      </trkpt>
      <trkpt lat="49.23476" lon="-0.03637">
        <ele>17.44</ele>
        <time>2021-07-29T18:33:54Z</time>
      </trkpt>
      <trkpt lat="49.23402" lon="-0.03778">
        <ele>17.92</ele>
        <time>2021-07-29T18:34:05Z</time>
      </trkpt>
      <trkpt lat="49.23398" lon="-0.03786">
        <ele>18.4</ele>
        <time>2021-07-29T18:34:06Z</time>
      </trkpt>
      <trkpt lat="49.23394" lon="-0.03794">
        <ele>18.4</ele>
        <time>2021-07-29T18:34:07Z</time>
      </trkpt>
      <trkpt lat="49.23391" lon="-0.03812">
        <ele>18.88</ele>
        <time>2021-07-29T18:34:09Z</time>
      </trkpt>
      <trkpt lat="49.2339" lon="-0.03828">
        <ele>18.88</ele>
        <time>2021-07-29T18:34:10Z</time>
      </trkpt>
      <trkpt lat="49.23386" lon="-0.03831">
        <ele>18.88</ele>
        <time>2021-07-29T18:34:11Z</time>
      </trkpt>
      <trkpt lat="49.23384" lon="-0.03832">
        <ele>18.4</ele>
        <time>2021-07-29T18:34:12Z</time>
      </trkpt>
      <trkpt lat="49.23374" lon="-0.03835">
        <ele>17.92</ele>
        <time>2021-07-29T18:34:13Z</time>
      </trkpt>
      <trkpt lat="49.2337" lon="-0.03842">
        <ele>17.92</ele>
        <time>2021-07-29T18:34:14Z</time>
      </trkpt>
      <trkpt lat="49.23365" lon="-0.03849">
        <ele>18.4</ele>
        <time>2021-07-29T18:34:15Z</time>
      </trkpt>
      <trkpt lat="49.23359" lon="-0.03858">
        <ele>18.4</ele>
        <time>2021-07-29T18:34:16Z</time>
      </trkpt>
      <trkpt lat="49.2328" lon="-0.04007">
        <ele>21.77</ele>
        <time>2021-07-29T18:34:30Z</time>
      </trkpt>
      <trkpt lat="49.23245" lon="-0.04069">
        <ele>23.21</ele>
        <time>2021-07-29T18:34:38Z</time>
      </trkpt>
      <trkpt lat="49.23235" lon="-0.04089">
        <ele>23.69</ele>
        <time>2021-07-29T18:34:47Z</time>
      </trkpt>
      <trkpt lat="49.23191" lon="-0.04173">
        <ele>25.13</ele>
        <time>2021-07-29T18:34:57Z</time>
      </trkpt>
      <trkpt lat="49.23143" lon="-0.04299">
        <ele>25.61</ele>
        <time>2021-07-29T18:35:09Z</time>
      </trkpt>
      <trkpt lat="49.23117" lon="-0.04426">
        <ele>27.05</ele>
        <time>2021-07-29T18:35:21Z</time>
      </trkpt>
      <trkpt lat="49.2309" lon="-0.0455">
        <ele>28.02</ele>
        <time>2021-07-29T18:35:32Z</time>
      </trkpt>
      <trkpt lat="49.23046" lon="-0.04699">
        <ele>35.71</ele>
        <time>2021-07-29T18:35:43Z</time>
      </trkpt>
      <trkpt lat="49.2299" lon="-0.04885">
        <ele>40.51</ele>
        <time>2021-07-29T18:35:54Z</time>
      </trkpt>
      <trkpt lat="49.22911" lon="-0.0513">
        <ele>34.26</ele>
        <time>2021-07-29T18:36:09Z</time>
      </trkpt>
      <trkpt lat="49.22856" lon="-0.05309">
        <ele>36.67</ele>
        <time>2021-07-29T18:36:20Z</time>
      </trkpt>
      <trkpt lat="49.22785" lon="-0.05546">
        <ele>32.34</ele>
        <time>2021-07-29T18:36:31Z</time>
      </trkpt>
      <trkpt lat="49.2267" lon="-0.0592">
        <ele>35.71</ele>
        <time>2021-07-29T18:36:46Z</time>
      </trkpt>
      <trkpt lat="49.22576" lon="-0.0624">
        <ele>25.61</ele>
        <time>2021-07-29T18:36:58Z</time>
      </trkpt>
      <trkpt lat="49.22487" lon="-0.06658">
        <ele>14.56</ele>
        <time>2021-07-29T18:37:13Z</time>
      </trkpt>
      <trkpt lat="49.22407" lon="-0.0703">
        <ele>4.46</ele>
        <time>2021-07-29T18:37:26Z</time>
      </trkpt>
      <trkpt lat="49.22301" lon="-0.07506">
        <ele>1.1</ele>
        <time>2021-07-29T18:37:44Z</time>
      </trkpt>
      <trkpt lat="49.22269" lon="-0.07683">
        <ele>2.54</ele>
        <time>2021-07-29T18:37:52Z</time>
      </trkpt>
      <trkpt lat="49.22252" lon="-0.07788">
        <ele>3.98</ele>
        <time>2021-07-29T18:37:58Z</time>
      </trkpt>
      <trkpt lat="49.22251" lon="-0.07798">
        <ele>4.46</ele>
        <time>2021-07-29T18:37:59Z</time>
      </trkpt>
      <trkpt lat="49.22251" lon="-0.07804">
        <ele>4.46</ele>
        <time>2021-07-29T18:38:00Z</time>
      </trkpt>
      <trkpt lat="49.22252" lon="-0.07812">
        <ele>4.46</ele>
        <time>2021-07-29T18:38:01Z</time>
      </trkpt>
      <trkpt lat="49.22253" lon="-0.0782">
        <ele>4.46</ele>
        <time>2021-07-29T18:38:02Z</time>
      </trkpt>
      <trkpt lat="49.22255" lon="-0.07829">
        <ele>4.94</ele>
        <time>2021-07-29T18:38:03Z</time>
      </trkpt>
      <trkpt lat="49.22252" lon="-0.07837">
        <ele>4.94</ele>
        <time>2021-07-29T18:38:04Z</time>
      </trkpt>
      <trkpt lat="49.22248" lon="-0.07843">
        <ele>4.94</ele>
        <time>2021-07-29T18:38:05Z</time>
      </trkpt>
      <trkpt lat="49.22248" lon="-0.07843">
        <ele>4.94</ele>
        <time>2021-07-29T18:38:06Z</time>
      </trkpt>
      <trkpt lat="49.22238" lon="-0.07858">
        <ele>4.94</ele>
        <time>2021-07-29T18:38:07Z</time>
      </trkpt>
      <trkpt lat="49.22236" lon="-0.07868">
        <ele>4.94</ele>
        <time>2021-07-29T18:38:08Z</time>
      </trkpt>
      <trkpt lat="49.22232" lon="-0.07879">
        <ele>4.94</ele>
        <time>2021-07-29T18:38:09Z</time>
      </trkpt>
      <trkpt lat="49.2219" lon="-0.08047">
        <ele>4.94</ele>
        <time>2021-07-29T18:38:19Z</time>
      </trkpt>
      <trkpt lat="49.22132" lon="-0.08283">
        <ele>0.62</ele>
        <time>2021-07-29T18:38:29Z</time>
      </trkpt>
      <trkpt lat="49.22042" lon="-0.08685">
        <ele>0.14</ele>
        <time>2021-07-29T18:38:43Z</time>
      </trkpt>
      <trkpt lat="49.21969" lon="-0.09026">
        <ele>2.06</ele>
        <time>2021-07-29T18:38:54Z</time>
      </trkpt>
      <trkpt lat="49.21832" lon="-0.09653">
        <ele>18.88</ele>
        <time>2021-07-29T18:39:14Z</time>
      </trkpt>
      <trkpt lat="49.21765" lon="-0.0995">
        <ele>19.84</ele>
        <time>2021-07-29T18:39:26Z</time>
      </trkpt>
      <trkpt lat="49.21687" lon="-0.10146">
        <ele>17.44</ele>
        <time>2021-07-29T18:39:35Z</time>
      </trkpt>
      <trkpt lat="49.21508" lon="-0.1057">
        <ele>15.52</ele>
        <time>2021-07-29T18:39:51Z</time>
      </trkpt>
      <trkpt lat="49.21294" lon="-0.11072">
        <ele>14.08</ele>
        <time>2021-07-29T18:40:09Z</time>
      </trkpt>
      <trkpt lat="49.2118" lon="-0.11315">
        <ele>16</ele>
        <time>2021-07-29T18:40:21Z</time>
      </trkpt>
      <trkpt lat="49.20943" lon="-0.1166">
        <ele>14.08</ele>
        <time>2021-07-29T18:40:41Z</time>
      </trkpt>
      <trkpt lat="49.2076" lon="-0.11924">
        <ele>3.5</ele>
        <time>2021-07-29T18:40:56Z</time>
      </trkpt>
      <trkpt lat="49.20511" lon="-0.12279">
        <ele>-3.71</ele>
        <time>2021-07-29T18:41:13Z</time>
      </trkpt>
    </trkseg>
  </trk>
</gpx>